Observation data for Amarillo 15 North Northwest on 11/17/2019      Previous  Date  Next       Current Mesonet Observations  Soil Data  Daily Summary Page  Observations in Plain Language
KAM3 170600Z 01007KT 11/01 A3003 RMK A01 T01070005  RH  049%=      5-min Rain = 0
KAM3 170601Z 01007KT 11/00 A3003 RMK A01 T01080003  RH  048%=      5-min Rain = 0
KAM3 170602Z 01007KT 11/00 A3003 RMK A01 T01090002  RH  048%=      5-min Rain = 0
KAM3 170603Z 00008KT 11/00 A3003 RMK A01 T01100003  RH  048%=      5-min Rain = 0
KAM3 170604Z 00007KT 11/00 A3003 RMK A01 T01100002  RH  047%=      5-min Rain = 0
KAM3 170605Z 00008KT 11/00 A3003 RMK A01 T01100002  RH  047%=      5-min Rain = 0
KAM3 170606Z 01010KT 11/00 A3003 RMK A01 T01090000  RH  047%=      5-min Rain = 0
KAM3 170607Z 01011KT 11/M00 A3002 RMK A01 T01101001  RH  046%=      5-min Rain = 0
KAM3 170608Z 01010KT 11/M00 A3002 RMK A01 T01101003  RH  045%=      5-min Rain = 0
KAM3 170609Z 02009KT 11/M00 A3002 RMK A01 T01111004  RH  045%=      5-min Rain = 0
KAM3 170610Z 01011KT 11/M01 A3002 RMK A01 T01121005  RH  044%=      5-min Rain = 0
KAM3 170611Z 01012KT 11/M01 A3002 RMK A01 T01121007  RH  044%=      5-min Rain = 0
KAM3 170612Z 01012KT 11/M01 A3002 RMK A01 T01131008  RH  043%=      5-min Rain = 0
KAM3 170613Z 01012KT 11/M01 A3002 RMK A01 T01141009  RH  043%=      5-min Rain = 0
KAM3 170614Z 01012KT 12/M01 A3002 RMK A01 T01151010  RH  042%=      5-min Rain = 0
KAM3 170615Z 01011KT 12/M01 A3002 RMK A01 T01151010  RH  042%=      5-min Rain = 0
KAM3 170616Z 01011KT 12/M01 A3002 RMK A01 T01161012  RH  041%=      5-min Rain = 0
KAM3 170617Z 01011KT 12/M01 A3002 RMK A01 T01161012  RH  041%=      5-min Rain = 0
KAM3 170618Z 01014KT 12/M01 A3002 RMK A01 T01171013  RH  040%=      5-min Rain = 0
KAM3 170619Z 01012KT 12/M01 A3002 RMK A01 T01181014  RH  040%=      5-min Rain = 0
KAM3 170620Z 01012KT 12/M01 A3002 RMK A01 T01191014  RH  040%=      5-min Rain = 0
KAM3 170621Z 01012KT 12/M01 A3003 RMK A01 T01191014  RH  040%=      5-min Rain = 0
KAM3 170622Z 01014KT 12/M01 A3003 RMK A01 T01191014  RH  040%=      5-min Rain = 0
KAM3 170623Z 01014KT 12/M02 A3003 RMK A01 T01191015  RH  039%=      5-min Rain = 0
KAM3 170624Z 01011G16KT 12/M02 A3003 RMK A01 T01201016  RH  039%=      5-min Rain = 0
KAM3 170625Z 01013KT 12/M02 A3003 RMK A01 T01211015  RH  039%=      5-min Rain = 0
KAM3 170626Z 00011KT 12/M02 A3003 RMK A01 T01211016  RH  039%=      5-min Rain = 0
KAM3 170627Z 01014KT 12/M02 A3004 RMK A01 T01211016  RH  039%=      5-min Rain = 0
KAM3 170628Z 01013KT 12/M02 A3004 RMK A01 T01211017  RH  038%=      5-min Rain = 0
KAM3 170629Z 01012KT 12/M02 A3004 RMK A01 T01231018  RH  037%=      5-min Rain = 0
KAM3 170630Z 00012KT 12/M02 A3004 RMK A01 T01241017  RH  038%=      5-min Rain = 0
KAM3 170631Z 01011KT 12/M02 A3004 RMK A01 T01231017  RH  038%=      5-min Rain = 0
KAM3 170632Z 01013KT 12/M02 A3004 RMK A01 T01231019  RH  037%=      5-min Rain = 0
KAM3 170633Z 01014G19KT 12/M02 A3004 RMK A01 T01231019  RH  037%=      5-min Rain = 0
KAM3 170634Z 01015KT 12/M02 A3004 RMK A01 T01231019  RH  037%=      5-min Rain = 0
KAM3 170635Z 01015G21KT 12/M02 A3004 RMK A01 T01241019  RH  037%=      5-min Rain = 0
KAM3 170636Z 01012KT 12/M02 A3004 RMK A01 T01241020  RH  037%=      5-min Rain = 0
KAM3 170637Z 01014KT 12/M02 A3004 RMK A01 T01241020  RH  037%=      5-min Rain = 0
KAM3 170638Z 01012KT 12/M02 A3004 RMK A01 T01241020  RH  037%=      5-min Rain = 0
KAM3 170639Z 01012KT 12/M02 A3004 RMK A01 T01231020  RH  037%=      5-min Rain = 0
KAM3 170640Z 00014KT 12/M02 A3004 RMK A01 T01221020  RH  037%=      5-min Rain = 0
KAM3 170641Z 01017G22KT 12/M02 A3004 RMK A01 T01221020  RH  037%=      5-min Rain = 0
KAM3 170642Z 01014KT 12/M02 A3004 RMK A01 T01231021  RH  037%=      5-min Rain = 0
KAM3 170643Z 01010KT 12/M02 A3004 RMK A01 T01221020  RH  037%=      5-min Rain = 0
KAM3 170644Z 01014KT 12/M02 A3004 RMK A01 T01211021  RH  037%=      5-min Rain = 0
KAM3 170645Z 01013KT 12/M02 A3004 RMK A01 T01201021  RH  037%=      5-min Rain = 0
KAM3 170646Z 01016G21KT 12/M02 A3004 RMK A01 T01191021  RH  038%=      5-min Rain = 0
KAM3 170647Z 01015KT 12/M02 A3004 RMK A01 T01191021  RH  038%=      5-min Rain = 0
KAM3 170648Z 01014KT 12/M02 A3005 RMK A01 T01201021  RH  037%=      5-min Rain = 0
KAM3 170649Z 01015KT 12/M02 A3005 RMK A01 T01201021  RH  037%=      5-min Rain = 0
KAM3 170650Z 01015KT 12/M02 A3005 RMK A01 T01201021  RH  037%=      5-min Rain = 0
KAM3 170651Z 01015KT 12/M02 A3005 RMK A01 T01211021  RH  037%=      5-min Rain = 0
KAM3 170652Z 01016KT 12/M02 A3005 RMK A01 T01201021  RH  037%=      5-min Rain = 0
KAM3 170653Z 02014KT 12/M02 A3005 RMK A01 T01201022  RH  037%=      5-min Rain = 0
KAM3 170654Z 00015G22KT 12/M02 A3005 RMK A01 T01201021  RH  037%=      5-min Rain = 0
KAM3 170655Z 00017KT 12/M02 A3005 RMK A01 T01191022  RH  037%=      5-min Rain = 0
KAM3 170656Z 01016KT 12/M02 A3005 RMK A01 T01201021  RH  037%=      5-min Rain = 0
KAM3 170657Z 01018KT 12/M02 A3005 RMK A01 T01201022  RH  037%=      5-min Rain = 0
KAM3 170658Z 01016KT 12/M02 A3005 RMK A01 T01201022  RH  037%=      5-min Rain = 0
KAM3 170659Z 01016KT 12/M02 A3005 RMK A01 T01211022  RH  037%=      5-min Rain = 0
KAM3 170700Z 01017KT 12/M02 A3005 RMK A01 T01201022  RH  037%=      5-min Rain = 0
KAM3 170701Z 01019G24KT 12/M02 A3005 RMK A01 T01201022  RH  037%=      5-min Rain = 0
KAM3 170702Z 01016KT 12/M02 A3005 RMK A01 T01201022  RH  037%=      5-min Rain = 0
KAM3 170703Z 01016KT 12/M02 A3005 RMK A01 T01201022  RH  037%=      5-min Rain = 0
KAM3 170704Z 01016KT 12/M02 A3006 RMK A01 T01201021  RH  037%=      5-min Rain = 0
KAM3 170705Z 01012KT 12/M02 A3006 RMK A01 T01191021  RH  038%=      5-min Rain = 0
KAM3 170706Z 01009KT 12/M02 A3006 RMK A01 T01181021  RH  038%=      5-min Rain = 0
KAM3 170707Z 01012KT 12/M02 A3006 RMK A01 T01161021  RH  038%=      5-min Rain = 0
KAM3 170708Z 01015G21KT 12/M02 A3006 RMK A01 T01151021  RH  039%=      5-min Rain = 0
KAM3 170709Z 02015G23KT 12/M02 A3006 RMK A01 T01161020  RH  039%=      5-min Rain = 0
KAM3 170710Z 01020KT 12/M02 A3006 RMK A01 T01161020  RH  039%=      5-min Rain = 0
KAM3 170711Z 02019G28KT 12/M02 A3006 RMK A01 T01161019  RH  039%=      5-min Rain = 0
KAM3 170712Z 02016G21KT 12/M02 A3006 RMK A01 T01161019  RH  039%=      5-min Rain = 0
KAM3 170713Z 01015G20KT 12/M02 A3006 RMK A01 T01151019  RH  039%=      5-min Rain = 0
KAM3 170714Z 01015KT 11/M02 A3007 RMK A01 T01141019  RH  039%=      5-min Rain = 0
KAM3 170715Z 01012KT 11/M02 A3007 RMK A01 T01141019  RH  040%=      5-min Rain = 0
KAM3 170716Z 01008KT 11/M02 A3007 RMK A01 T01121019  RH  040%=      5-min Rain = 0
KAM3 170717Z 01008KT 11/M02 A3007 RMK A01 T01101019  RH  040%=      5-min Rain = 0
KAM3 170718Z 02009G15KT 11/M02 A3006 RMK A01 T01091019  RH  041%=      5-min Rain = 0
KAM3 170719Z 00012KT 11/M02 A3006 RMK A01 T01091019  RH  041%=      5-min Rain = 0
KAM3 170720Z 01012KT 11/M02 A3007 RMK A01 T01081018  RH  041%=      5-min Rain = 0
KAM3 170721Z 00012KT 11/M02 A3007 RMK A01 T01081018  RH  041%=      5-min Rain = 0
KAM3 170722Z 00018KT 11/M02 A3007 RMK A01 T01081018  RH  041%=      5-min Rain = 0
KAM3 170723Z 36013KT 11/M02 A3007 RMK A01 T01081017  RH  042%=      5-min Rain = 0
KAM3 170724Z 01010KT 11/M02 A3007 RMK A01 T01081017  RH  042%=      5-min Rain = 0
KAM3 170725Z 01014KT 11/M02 A3007 RMK A01 T01061018  RH  042%=      5-min Rain = 0
KAM3 170726Z 01013G22KT 11/M02 A3007 RMK A01 T01051017  RH  042%=      5-min Rain = 0
KAM3 170727Z 00017G24KT 11/M02 A3007 RMK A01 T01051016  RH  043%=      5-min Rain = 0
KAM3 170728Z 01019G24KT 11/M01 A3007 RMK A01 T01051014  RH  043%=      5-min Rain = 0
KAM3 170729Z 01018G23KT 10/M01 A3007 RMK A01 T01041014  RH  044%=      5-min Rain = 0
KAM3 170730Z 01017KT 10/M01 A3007 RMK A01 T01041014  RH  044%=      5-min Rain = 0
KAM3 170731Z 01015KT 10/M01 A3007 RMK A01 T01041014  RH  044%=      5-min Rain = 0
KAM3 170732Z 01017G25KT 10/M01 A3007 RMK A01 T01041014  RH  044%=      5-min Rain = 0
KAM3 170733Z 00015G20KT 10/M01 A3007 RMK A01 T01041013  RH  044%=      5-min Rain = 0
KAM3 170734Z 01015G20KT 10/M01 A3007 RMK A01 T01031013  RH  044%=      5-min Rain = 0
KAM3 170735Z 01012G17KT 10/M01 A3007 RMK A01 T01031012  RH  045%=      5-min Rain = 0
KAM3 170736Z 00016KT 10/M01 A3007 RMK A01 T01011012  RH  045%=      5-min Rain = 0
KAM3 170737Z 00018KT 10/M01 A3007 RMK A01 T01011012  RH  045%=      5-min Rain = 0
KAM3 170738Z 01012KT 10/M01 A3007 RMK A01 T01011011  RH  046%=      5-min Rain = 0
KAM3 170739Z 02014KT 10/M01 A3007 RMK A01 T01011011  RH  046%=      5-min Rain = 0
KAM3 170740Z 01013G18KT 10/M01 A3007 RMK A01 T01001011  RH  046%=      5-min Rain = 0
KAM3 170741Z 01017KT 10/M01 A3007 RMK A01 T01001011  RH  046%=      5-min Rain = 0
KAM3 170742Z 01017KT 10/M01 A3007 RMK A01 T01001010  RH  046%=      5-min Rain = 0
KAM3 170743Z 01012KT 10/M01 A3007 RMK A01 T01001010  RH  046%=      5-min Rain = 0
KAM3 170744Z 01014KT 10/M01 A3007 RMK A01 T00991010  RH  046%=      5-min Rain = 0
KAM3 170745Z 01014KT 10/M01 A3007 RMK A01 T00991010  RH  047%=      5-min Rain = 0
KAM3 170746Z 01017KT 10/M01 A3007 RMK A01 T00991009  RH  047%=      5-min Rain = 0
KAM3 170747Z 02018G24KT 10/M01 A3007 RMK A01 T00991009  RH  047%=      5-min Rain = 0
KAM3 170748Z 01018G23KT 10/M01 A3007 RMK A01 T00991010  RH  047%=      5-min Rain = 0
KAM3 170749Z 01017KT 10/M01 A3007 RMK A01 T00991009  RH  047%=      5-min Rain = 0
KAM3 170750Z 01017KT 10/M01 A3008 RMK A01 T00991009  RH  047%=      5-min Rain = 0
KAM3 170751Z 01017G22KT 10/M01 A3008 RMK A01 T00981009  RH  047%=      5-min Rain = 0
KAM3 170752Z 00021KT 10/M01 A3008 RMK A01 T00981009  RH  047%=      5-min Rain = 0
KAM3 170753Z 36019KT 10/M01 A3008 RMK A01 T00981008  RH  048%=      5-min Rain = 0
KAM3 170754Z 00018KT 10/M01 A3008 RMK A01 T00971008  RH  048%=      5-min Rain = 0
KAM3 170755Z 00018KT 10/M01 A3008 RMK A01 T00971008  RH  048%=      5-min Rain = 0
KAM3 170756Z 01018KT 10/M01 A3008 RMK A01 T00961008  RH  048%=      5-min Rain = 0
KAM3 170757Z 01019G26KT 10/M01 A3008 RMK A01 T00961008  RH  049%=      5-min Rain = 0
KAM3 170758Z 35017G22KT 10/M01 A3009 RMK A01 T00961007  RH  049%=      5-min Rain = 0
KAM3 170759Z 01016G21KT 10/M01 A3009 RMK A01 T00951007  RH  049%=      5-min Rain = 0
KAM3 170800Z 36017G23KT 10/M01 A3009 RMK A01 T00951007  RH  049%=      5-min Rain = 0
KAM3 170801Z 00015G20KT 09/M01 A3009 RMK A01 T00941007  RH  049%=      5-min Rain = 0
KAM3 170802Z 01012KT 09/M01 A3009 RMK A01 T00941006  RH  050%=      5-min Rain = 0
KAM3 170803Z 01013KT 09/M01 A3009 RMK A01 T00931006  RH  050%=      5-min Rain = 0
KAM3 170804Z 02013KT 09/M01 A3009 RMK A01 T00931006  RH  050%=      5-min Rain = 0
KAM3 170805Z 01015KT 09/M01 A3009 RMK A01 T00921006  RH  050%=      5-min Rain = 0
KAM3 170806Z 02016KT 09/M01 A3009 RMK A01 T00921006  RH  050%=      5-min Rain = 0
KAM3 170807Z 01016G21KT 09/M01 A3009 RMK A01 T00921005  RH  051%=      5-min Rain = 0
KAM3 170808Z 01012KT 09/M01 A3009 RMK A01 T00921005  RH  051%=      5-min Rain = 0
KAM3 170809Z 01012KT 09/M01 A3009 RMK A01 T00921005  RH  051%=      5-min Rain = 0
KAM3 170810Z 01014KT 09/M01 A3009 RMK A01 T00911005  RH  051%=      5-min Rain = 0
KAM3 170811Z 02018KT 09/M01 A3009 RMK A01 T00911005  RH  051%=      5-min Rain = 0
KAM3 170812Z 02018KT 09/M01 A301 RMK A01 T00911005  RH  051%=      5-min Rain = 0
KAM3 170813Z 01013KT 09/M01 A301 RMK A01 T00911005  RH  051%=      5-min Rain = 0
KAM3 170814Z 02018KT 09/M01 A301 RMK A01 T00911005  RH  051%=      5-min Rain = 0
KAM3 170815Z 02014G22KT 09/M00 A301 RMK A01 T00921004  RH  051%=      5-min Rain = 0
KAM3 170816Z 01011KT 09/M00 A301 RMK A01 T00911004  RH  051%=      5-min Rain = 0
KAM3 170817Z 01010KT 09/M01 A301 RMK A01 T00901005  RH  051%=      5-min Rain = 0
KAM3 170818Z 01013KT 09/M00 A301 RMK A01 T00891004  RH  052%=      5-min Rain = 0
KAM3 170819Z 01010KT 09/M00 A301 RMK A01 T00891004  RH  052%=      5-min Rain = 0
KAM3 170820Z 01014KT 09/M00 A3011 RMK A01 T00891004  RH  052%=      5-min Rain = 0
KAM3 170821Z 02013KT 09/M00 A3011 RMK A01 T00891004  RH  052%=      5-min Rain = 0
KAM3 170822Z 01018KT 09/M00 A3011 RMK A01 T00891003  RH  052%=      5-min Rain = 0
KAM3 170823Z 01015KT 09/M00 A3011 RMK A01 T00891003  RH  053%=      5-min Rain = 0
KAM3 170824Z 00016G21KT 09/M00 A3011 RMK A01 T00891003  RH  053%=      5-min Rain = 0
KAM3 170825Z 01014G20KT 09/M00 A3011 RMK A01 T00891003  RH  053%=      5-min Rain = 0
KAM3 170826Z 01014KT 09/M00 A3011 RMK A01 T00891002  RH  053%=      5-min Rain = 0
KAM3 170827Z 01016KT 09/M00 A3011 RMK A01 T00891002  RH  053%=      5-min Rain = 0
KAM3 170828Z 02016G22KT 09/M00 A301 RMK A01 T00891002  RH  053%=      5-min Rain = 0
KAM3 170829Z 02018G23KT 09/M00 A301 RMK A01 T00891001  RH  053%=      5-min Rain = 0
KAM3 170830Z 01015G20KT 09/M00 A3011 RMK A01 T00891001  RH  053%=      5-min Rain = 0
KAM3 170831Z 01016KT 09/M00 A3011 RMK A01 T00891001  RH  053%=      5-min Rain = 0
KAM3 170832Z 01018KT 09/M00 A3011 RMK A01 T00881001  RH  054%=      5-min Rain = 0
KAM3 170833Z 02018G23KT 09/M00 A3011 RMK A01 T00881001  RH  054%=      5-min Rain = 0
KAM3 170834Z 01017KT 09/M00 A3011 RMK A01 T00881001  RH  054%=      5-min Rain = 0
KAM3 170835Z 02015KT 09/M00 A3011 RMK A01 T00881001  RH  054%=      5-min Rain = 0
KAM3 170836Z 02011KT 09/M00 A301 RMK A01 T00871001  RH  054%=      5-min Rain = 0
KAM3 170837Z 02012KT 09/00 A301 RMK A01 T008700-0  RH  054%=      5-min Rain = 0
KAM3 170838Z 03011KT 09/M00 A301 RMK A01 T00861001  RH  054%=      5-min Rain = 0
KAM3 170839Z 03010G15KT 09/M00 A301 RMK A01 T00851001  RH  055%=      5-min Rain = 0
KAM3 170840Z 02014G22KT 08/00 A301 RMK A01 T008400-0  RH  055%=      5-min Rain = 0
KAM3 170841Z 01015G22KT 08/00 A3011 RMK A01 T008400-0  RH  056%=      5-min Rain = 0
KAM3 170842Z 02015KT 08/00 A3011 RMK A01 T00840001  RH  056%=      5-min Rain = 0
KAM3 170843Z 02015KT 08/00 A3011 RMK A01 T00840001  RH  056%=      5-min Rain = 0
KAM3 170844Z 01012KT 08/00 A3011 RMK A01 T00840001  RH  056%=      5-min Rain = 0
KAM3 170845Z 00012KT 08/00 A3011 RMK A01 T00840001  RH  056%=      5-min Rain = 0
KAM3 170846Z 01012G18KT 08/00 A3011 RMK A01 T00820000  RH  056%=      5-min Rain = 0
KAM3 170847Z 01013KT 08/00 A3011 RMK A01 T00820001  RH  057%=      5-min Rain = 0
KAM3 170848Z 02016KT 08/00 A3011 RMK A01 T00820001  RH  056%=      5-min Rain = 0
KAM3 170849Z 02010KT 08/00 A3011 RMK A01 T00830001  RH  056%=      5-min Rain = 0
KAM3 170850Z 02011KT 08/00 A3011 RMK A01 T00830001  RH  056%=      5-min Rain = 0
KAM3 170851Z 02011KT 08/00 A3011 RMK A01 T00820001  RH  056%=      5-min Rain = 0
KAM3 170852Z 01012KT 08/00 A3011 RMK A01 T00810001  RH  057%=      5-min Rain = 0
KAM3 170853Z 01014KT 08/00 A3011 RMK A01 T00810001  RH  057%=      5-min Rain = 0
KAM3 170854Z 01011KT 08/00 A3011 RMK A01 T00810001  RH  057%=      5-min Rain = 0
KAM3 170855Z 01013KT 08/00 A3012 RMK A01 T00800001  RH  058%=      5-min Rain = 0
KAM3 170856Z 01010KT 08/00 A3012 RMK A01 T00800002  RH  058%=      5-min Rain = 0
KAM3 170857Z 01012KT 08/00 A3012 RMK A01 T00800002  RH  058%=      5-min Rain = 0
KAM3 170858Z 01012KT 08/00 A3012 RMK A01 T00800002  RH  058%=      5-min Rain = 0
KAM3 170859Z 01011KT 08/00 A3011 RMK A01 T00790002  RH  058%=      5-min Rain = 0
KAM3 170900Z 00012KT 08/00 A3012 RMK A01 T00780002  RH  058%=      5-min Rain = 0
KAM3 170901Z 00013KT 08/00 A3012 RMK A01 T00780002  RH  058%=      5-min Rain = 0
KAM3 170902Z 01014KT 08/00 A3012 RMK A01 T00790002  RH  058%=      5-min Rain = 0
KAM3 170903Z 01013KT 08/00 A3012 RMK A01 T00780002  RH  058%=      5-min Rain = 0
KAM3 170904Z 01012KT 08/00 A3012 RMK A01 T00790002  RH  058%=      5-min Rain = 0
KAM3 170905Z 01012KT 08/00 A3012 RMK A01 T00790002  RH  059%=      5-min Rain = 0
KAM3 170906Z 02013KT 08/00 A3012 RMK A01 T00790002  RH  059%=      5-min Rain = 0
KAM3 170907Z 01011KT 08/00 A3012 RMK A01 T00790002  RH  059%=      5-min Rain = 0
KAM3 170908Z 01012KT 08/00 A3012 RMK A01 T00780002  RH  059%=      5-min Rain = 0
KAM3 170909Z 01014KT 08/00 A3012 RMK A01 T00770002  RH  059%=      5-min Rain = 0
KAM3 170910Z 01013KT 08/00 A3012 RMK A01 T00770002  RH  059%=      5-min Rain = 0
KAM3 170911Z 01011KT 08/00 A3012 RMK A01 T00770002  RH  059%=      5-min Rain = 0
KAM3 170912Z 01012G18KT 08/00 A3012 RMK A01 T00770002  RH  059%=      5-min Rain = 0
KAM3 170913Z 01014KT 08/00 A3012 RMK A01 T00770003  RH  059%=      5-min Rain = 0
KAM3 170914Z 01012KT 08/00 A3012 RMK A01 T00770003  RH  059%=      5-min Rain = 0
KAM3 170915Z 01012G17KT 08/00 A3012 RMK A01 T00770003  RH  059%=      5-min Rain = 0
KAM3 170916Z 02012KT 08/00 A3012 RMK A01 T00770003  RH  059%=      5-min Rain = 0
KAM3 170917Z 01010KT 08/00 A3012 RMK A01 T00770003  RH  059%=      5-min Rain = 0
KAM3 170918Z 01010KT 08/00 A3012 RMK A01 T00760003  RH  060%=      5-min Rain = 0
KAM3 170919Z 01010KT 08/00 A3012 RMK A01 T00750002  RH  060%=      5-min Rain = 0
KAM3 170920Z 02012KT 07/00 A3012 RMK A01 T00740002  RH  060%=      5-min Rain = 0
KAM3 170921Z 01014KT 07/00 A3012 RMK A01 T00740003  RH  060%=      5-min Rain = 0
KAM3 170922Z 02013KT 08/00 A3012 RMK A01 T00760004  RH  060%=      5-min Rain = 0
KAM3 170923Z 01010KT 08/00 A3012 RMK A01 T00760003  RH  060%=      5-min Rain = 0
KAM3 170924Z 02012KT 08/00 A3012 RMK A01 T00750003  RH  060%=      5-min Rain = 0
KAM3 170925Z 01012KT 07/00 A3012 RMK A01 T00740003  RH  061%=      5-min Rain = 0
KAM3 170926Z 02010KT 07/00 A3012 RMK A01 T00740003  RH  061%=      5-min Rain = 0
KAM3 170927Z 02013KT 07/00 A3012 RMK A01 T00740003  RH  061%=      5-min Rain = 0
KAM3 170928Z 01015KT 07/00 A3012 RMK A01 T00740003  RH  061%=      5-min Rain = 0
KAM3 170929Z 02012KT 08/00 A3012 RMK A01 T00750004  RH  061%=      5-min Rain = 0
KAM3 170930Z 02011KT 08/00 A3012 RMK A01 T00750004  RH  061%=      5-min Rain = 0
KAM3 170931Z 02009KT 07/00 A3012 RMK A01 T00740003  RH  061%=      5-min Rain = 0
KAM3 170932Z 01010KT 07/00 A3012 RMK A01 T00730002  RH  061%=      5-min Rain = 0
KAM3 170933Z 01012KT 07/00 A3012 RMK A01 T00720002  RH  061%=      5-min Rain = 0
KAM3 170934Z 02010KT 07/00 A3012 RMK A01 T00710003  RH  062%=      5-min Rain = 0
KAM3 170935Z 01013KT 07/00 A3012 RMK A01 T00710003  RH  062%=      5-min Rain = 0
KAM3 170936Z 02013KT 07/00 A3012 RMK A01 T00710003  RH  062%=      5-min Rain = 0
KAM3 170937Z 02011KT 07/00 A3012 RMK A01 T00720004  RH  062%=      5-min Rain = 0
KAM3 170938Z 01010KT 07/00 A3012 RMK A01 T00720003  RH  062%=      5-min Rain = 0
KAM3 170939Z 02011KT 07/00 A3012 RMK A01 T00710003  RH  062%=      5-min Rain = 0
KAM3 170940Z 02010KT 07/00 A3012 RMK A01 T00710003  RH  062%=      5-min Rain = 0
KAM3 170941Z 01010KT 07/00 A3012 RMK A01 T00700003  RH  062%=      5-min Rain = 0
KAM3 170942Z 01012KT 07/00 A3012 RMK A01 T00700003  RH  062%=      5-min Rain = 0
KAM3 170943Z 02013KT 07/00 A3012 RMK A01 T00700003  RH  062%=      5-min Rain = 0
KAM3 170944Z 01013KT 07/00 A3012 RMK A01 T00710004  RH  062%=      5-min Rain = 0
KAM3 170945Z 02014KT 07/00 A3012 RMK A01 T00710003  RH  062%=      5-min Rain = 0
KAM3 170946Z 01016KT 07/00 A3012 RMK A01 T00710003  RH  062%=      5-min Rain = 0
KAM3 170947Z 01012KT 07/00 A3012 RMK A01 T00720004  RH  062%=      5-min Rain = 0
KAM3 170948Z 02014KT 07/00 A3013 RMK A01 T00730004  RH  061%=      5-min Rain = 0
KAM3 170949Z 02014KT 07/00 A3013 RMK A01 T00730003  RH  061%=      5-min Rain = 0
KAM3 170950Z 02012KT 07/00 A3013 RMK A01 T00720004  RH  062%=      5-min Rain = 0
KAM3 170951Z 02012KT 07/00 A3013 RMK A01 T00710003  RH  062%=      5-min Rain = 0
KAM3 170952Z 01013KT 07/00 A3013 RMK A01 T00700003  RH  062%=      5-min Rain = 0
KAM3 170953Z 02011KT 07/00 A3013 RMK A01 T00710003  RH  062%=      5-min Rain = 0
KAM3 170954Z 02011KT 07/00 A3013 RMK A01 T00700003  RH  062%=      5-min Rain = 0
KAM3 170955Z 02011KT 07/00 A3013 RMK A01 T00690003  RH  063%=      5-min Rain = 0
KAM3 170956Z 02012KT 07/00 A3013 RMK A01 T00680003  RH  063%=      5-min Rain = 0
KAM3 170957Z 02016G21KT 07/00 A3013 RMK A01 T00680003  RH  063%=      5-min Rain = 0
KAM3 170958Z 01013KT 07/00 A3013 RMK A01 T00700004  RH  063%=      5-min Rain = 0
KAM3 170959Z 02012KT 07/00 A3013 RMK A01 T00700003  RH  062%=      5-min Rain = 0
KAM3 171000Z 02010KT 07/00 A3013 RMK A01 T00690003  RH  063%=      5-min Rain = 0
KAM3 171001Z 02009KT 07/00 A3013 RMK A01 T00680002  RH  063%=      5-min Rain = 0
KAM3 171002Z 02011KT 07/00 A3013 RMK A01 T00670002  RH  063%=      5-min Rain = 0
KAM3 171003Z 02012KT 07/00 A3013 RMK A01 T00670002  RH  064%=      5-min Rain = 0
KAM3 171004Z 02014G19KT 07/00 A3013 RMK A01 T00670003  RH  064%=      5-min Rain = 0
KAM3 171005Z 02017KT 07/00 A3013 RMK A01 T00680004  RH  063%=      5-min Rain = 0
KAM3 171006Z 02017KT 07/00 A3013 RMK A01 T00700004  RH  063%=      5-min Rain = 0
KAM3 171007Z 01015KT 07/00 A3013 RMK A01 T00710004  RH  062%=      5-min Rain = 0
KAM3 171008Z 01014KT 07/00 A3013 RMK A01 T00710004  RH  062%=      5-min Rain = 0
KAM3 171009Z 02013KT 07/00 A3013 RMK A01 T00710004  RH  062%=      5-min Rain = 0
KAM3 171010Z 01015KT 07/00 A3014 RMK A01 T00710004  RH  062%=      5-min Rain = 0
KAM3 171011Z 01012KT 07/00 A3014 RMK A01 T00700003  RH  062%=      5-min Rain = 0
KAM3 171012Z 02013KT 07/00 A3014 RMK A01 T00700003  RH  063%=      5-min Rain = 0
KAM3 171013Z 01012KT 07/00 A3014 RMK A01 T00700004  RH  063%=      5-min Rain = 0
KAM3 171014Z 01013KT 07/00 A3014 RMK A01 T00690003  RH  063%=      5-min Rain = 0
KAM3 171015Z 01010KT 07/00 A3014 RMK A01 T00680003  RH  063%=      5-min Rain = 0
KAM3 171016Z 01010KT 07/00 A3014 RMK A01 T00670003  RH  063%=      5-min Rain = 0
KAM3 171017Z 01012KT 07/00 A3014 RMK A01 T00660003  RH  064%=      5-min Rain = 0
KAM3 171018Z 01012KT 07/00 A3014 RMK A01 T00670004  RH  064%=      5-min Rain = 0
KAM3 171019Z 01010KT 07/00 A3014 RMK A01 T00680004  RH  064%=      5-min Rain = 0
KAM3 171020Z 00010KT 07/00 A3014 RMK A01 T00680003  RH  063%=      5-min Rain = 0
KAM3 171021Z 01013KT 07/00 A3014 RMK A01 T00670003  RH  064%=      5-min Rain = 0
KAM3 171022Z 01010KT 07/00 A3014 RMK A01 T00660003  RH  064%=      5-min Rain = 0
KAM3 171023Z 02013KT 07/00 A3014 RMK A01 T00650003  RH  064%=      5-min Rain = 0
KAM3 171024Z 01013KT 07/00 A3014 RMK A01 T00650003  RH  065%=      5-min Rain = 0
KAM3 171025Z 02014KT 07/00 A3014 RMK A01 T00650004  RH  065%=      5-min Rain = 0
KAM3 171026Z 01016KT 07/00 A3014 RMK A01 T00660004  RH  065%=      5-min Rain = 0
KAM3 171027Z 01017KT 07/01 A3014 RMK A01 T00680005  RH  064%=      5-min Rain = 0
KAM3 171028Z 01015KT 07/01 A3014 RMK A01 T00690005  RH  064%=      5-min Rain = 0
KAM3 171029Z 00013KT 07/01 A3014 RMK A01 T00700005  RH  063%=      5-min Rain = 0
KAM3 171030Z 01012KT 07/00 A3014 RMK A01 T00690004  RH  063%=      5-min Rain = 0
KAM3 171031Z 01011KT 07/00 A3014 RMK A01 T00680004  RH  064%=      5-min Rain = 0
KAM3 171032Z 00011KT 07/00 A3014 RMK A01 T00670004  RH  064%=      5-min Rain = 0
KAM3 171033Z 00012G17KT 07/00 A3014 RMK A01 T00660004  RH  064%=      5-min Rain = 0
KAM3 171034Z 01011KT 07/00 A3015 RMK A01 T00660004  RH  064%=      5-min Rain = 0
KAM3 171035Z 01011G16KT 07/00 A3014 RMK A01 T00660004  RH  065%=      5-min Rain = 0
KAM3 171036Z 01012KT 07/00 A3014 RMK A01 T00660004  RH  065%=      5-min Rain = 0
KAM3 171037Z 00014KT 07/00 A3015 RMK A01 T00660004  RH  065%=      5-min Rain = 0
KAM3 171038Z 36013G19KT 07/00 A3015 RMK A01 T00670004  RH  064%=      5-min Rain = 0
KAM3 171039Z 36016KT 07/00 A3015 RMK A01 T00660004  RH  064%=      5-min Rain = 0
KAM3 171040Z 36013KT 07/00 A3015 RMK A01 T00670004  RH  064%=      5-min Rain = 0
KAM3 171041Z 35015KT 07/00 A3015 RMK A01 T00670004  RH  064%=      5-min Rain = 0
KAM3 171042Z 00015KT 07/00 A3015 RMK A01 T00670004  RH  064%=      5-min Rain = 0
KAM3 171043Z 36012KT 07/01 A3015 RMK A01 T00680005  RH  064%=      5-min Rain = 0
KAM3 171044Z 36011G16KT 07/00 A3015 RMK A01 T00670004  RH  064%=      5-min Rain = 0
KAM3 171045Z 35011G16KT 07/00 A3015 RMK A01 T00660004  RH  064%=      5-min Rain = 0
KAM3 171046Z 36012G17KT 07/00 A3015 RMK A01 T00650004  RH  065%=      5-min Rain = 0
KAM3 171047Z 00015KT 07/00 A3015 RMK A01 T00650004  RH  065%=      5-min Rain = 0
KAM3 171048Z 36014KT 07/00 A3015 RMK A01 T00650004  RH  065%=      5-min Rain = 0
KAM3 171049Z 36013KT 07/00 A3015 RMK A01 T00650004  RH  065%=      5-min Rain = 0
KAM3 171050Z 00012KT 07/00 A3015 RMK A01 T00660004  RH  065%=      5-min Rain = 0
KAM3 171051Z 36014KT 07/00 A3015 RMK A01 T00660004  RH  065%=      5-min Rain = 0
KAM3 171052Z 36017KT 07/01 A3015 RMK A01 T00660005  RH  065%=      5-min Rain = 0
KAM3 171053Z 00017G22KT 07/01 A3015 RMK A01 T00660005  RH  065%=      5-min Rain = 0
KAM3 171054Z 00017KT 07/01 A3015 RMK A01 T00670006  RH  065%=      5-min Rain = 0
KAM3 171055Z 00014KT 07/01 A3015 RMK A01 T00680006  RH  065%=      5-min Rain = 0
KAM3 171056Z 00015G21KT 07/01 A3015 RMK A01 T00670005  RH  065%=      5-min Rain = 0
KAM3 171057Z 00016KT 07/01 A3015 RMK A01 T00670006  RH  065%=      5-min Rain = 0
KAM3 171058Z 36014KT 07/01 A3015 RMK A01 T00670006  RH  065%=      5-min Rain = 0
KAM3 171059Z 00013KT 07/01 A3015 RMK A01 T00670005  RH  065%=      5-min Rain = 0
KAM3 171100Z 00016KT 07/01 A3015 RMK A01 T00660006  RH  065%=      5-min Rain = 0
KAM3 171101Z 01013G18KT 07/01 A3015 RMK A01 T00660006  RH  066%=      5-min Rain = 0
KAM3 171102Z 35015KT 07/01 A3016 RMK A01 T00660007  RH  066%=      5-min Rain = 0
KAM3 171103Z 00017G24KT 07/01 A3016 RMK A01 T00660008  RH  066%=      5-min Rain = 0
KAM3 171104Z 35017KT 07/01 A3016 RMK A01 T00660008  RH  066%=      5-min Rain = 0
KAM3 171105Z 35018KT 07/01 A3016 RMK A01 T00670008  RH  066%=      5-min Rain = 0
KAM3 171106Z 36014G19KT 07/01 A3016 RMK A01 T00670008  RH  066%=      5-min Rain = 0
KAM3 171107Z 00016G22KT 07/01 A3016 RMK A01 T00670008  RH  066%=      5-min Rain = 0
KAM3 171108Z 00013KT 07/01 A3016 RMK A01 T00660008  RH  066%=      5-min Rain = 0
KAM3 171109Z 36014KT 07/01 A3016 RMK A01 T00660007  RH  066%=      5-min Rain = 0
KAM3 171110Z 35015KT 07/01 A3016 RMK A01 T00650008  RH  067%=      5-min Rain = 0
KAM3 171111Z 36014KT 07/01 A3016 RMK A01 T00650009  RH  067%=      5-min Rain = 0
KAM3 171112Z 00018KT 07/01 A3016 RMK A01 T00650009  RH  067%=      5-min Rain = 0
KAM3 171113Z 36017G22KT 07/01 A3016 RMK A01 T00660010  RH  067%=      5-min Rain = 0
KAM3 171114Z 00018KT 07/01 A3016 RMK A01 T00660009  RH  067%=      5-min Rain = 0
KAM3 171115Z 36016KT 07/01 A3016 RMK A01 T00660010  RH  067%=      5-min Rain = 0
KAM3 171116Z 00016KT 07/01 A3016 RMK A01 T00660010  RH  067%=      5-min Rain = 0
KAM3 171117Z 36019KT 07/01 A3016 RMK A01 T00660010  RH  068%=      5-min Rain = 0
KAM3 171118Z 00017G22KT 07/01 A3016 RMK A01 T00660011  RH  068%=      5-min Rain = 0
KAM3 171119Z 36017KT 07/01 A3016 RMK A01 T00660011  RH  068%=      5-min Rain = 0
KAM3 171120Z 36015G20KT 07/01 A3016 RMK A01 T00660010  RH  068%=      5-min Rain = 0
KAM3 171121Z 00014KT 07/01 A3016 RMK A01 T00650011  RH  068%=      5-min Rain = 0
KAM3 171122Z 36016KT 06/01 A3016 RMK A01 T00640011  RH  069%=      5-min Rain = 0
KAM3 171123Z 00016G21KT 06/01 A3016 RMK A01 T00640011  RH  069%=      5-min Rain = 0
KAM3 171124Z 00016KT 06/01 A3016 RMK A01 T00640011  RH  069%=      5-min Rain = 0
KAM3 171125Z 36015KT 06/01 A3016 RMK A01 T00640011  RH  069%=      5-min Rain = 0
KAM3 171126Z 00012KT 06/01 A3017 RMK A01 T00640012  RH  069%=      5-min Rain = 0
KAM3 171127Z 00015G20KT 06/01 A3017 RMK A01 T00640012  RH  069%=      5-min Rain = 0
KAM3 171128Z 00013KT 06/01 A3017 RMK A01 T00640012  RH  069%=      5-min Rain = 0
KAM3 171129Z 36016G21KT 06/01 A3017 RMK A01 T00630012  RH  070%=      5-min Rain = 0
KAM3 171130Z 35013KT 06/01 A3017 RMK A01 T00630012  RH  070%=      5-min Rain = 0
KAM3 171131Z 35016KT 06/01 A3017 RMK A01 T00620012  RH  070%=      5-min Rain = 0
KAM3 171132Z 36012KT 06/01 A3017 RMK A01 T00620012  RH  070%=      5-min Rain = 0
KAM3 171133Z 35012KT 06/01 A3017 RMK A01 T00630013  RH  070%=      5-min Rain = 0
KAM3 171134Z 35011KT 06/01 A3017 RMK A01 T00620012  RH  070%=      5-min Rain = 0
KAM3 171135Z 35011KT 06/01 A3017 RMK A01 T00610012  RH  071%=      5-min Rain = 0
KAM3 171136Z 35012KT 06/01 A3017 RMK A01 T00600011  RH  071%=      5-min Rain = 0
KAM3 171137Z 00011KT 06/01 A3017 RMK A01 T00590012  RH  072%=      5-min Rain = 0
KAM3 171138Z 36011KT 06/01 A3017 RMK A01 T00580011  RH  072%=      5-min Rain = 0
KAM3 171139Z 35012KT 06/01 A3017 RMK A01 T00580012  RH  072%=      5-min Rain = 0
KAM3 171140Z 36015KT 06/01 A3017 RMK A01 T00590013  RH  073%=      5-min Rain = 0
KAM3 171141Z 35011KT 06/01 A3017 RMK A01 T00600014  RH  072%=      5-min Rain = 0
KAM3 171142Z 35010KT 06/01 A3018 RMK A01 T00600013  RH  072%=      5-min Rain = 0
KAM3 171143Z 35010KT 06/01 A3018 RMK A01 T00580012  RH  072%=      5-min Rain = 0
KAM3 171144Z 35009KT 06/01 A3018 RMK A01 T00570011  RH  073%=      5-min Rain = 0
KAM3 171145Z 35010KT 06/01 A3018 RMK A01 T00550011  RH  073%=      5-min Rain = 0
KAM3 171146Z 35008KT 05/01 A3018 RMK A01 T00530011  RH  074%=      5-min Rain = 0
KAM3 171147Z 35010KT 05/01 A3018 RMK A01 T00530011  RH  075%=      5-min Rain = 0
KAM3 171148Z 34009KT 05/01 A3018 RMK A01 T00530012  RH  075%=      5-min Rain = 0
KAM3 171149Z 35008KT 05/01 A3018 RMK A01 T00520012  RH  075%=      5-min Rain = 0
KAM3 171150Z 35009KT 05/01 A3018 RMK A01 T00510011  RH  075%=      5-min Rain = 0
KAM3 171151Z 34009KT 05/01 A3018 RMK A01 T00510012  RH  076%=      5-min Rain = 0
KAM3 171152Z 35013KT 05/01 A3018 RMK A01 T00520013  RH  076%=      5-min Rain = 0
KAM3 171153Z 34010KT 05/01 A3018 RMK A01 T00540014  RH  076%=      5-min Rain = 0
KAM3 171154Z 35011KT 05/01 A3018 RMK A01 T00540014  RH  075%=      5-min Rain = 0
KAM3 171155Z 35011KT 06/01 A3018 RMK A01 T00550014  RH  075%=      5-min Rain = 0
KAM3 171156Z 35014G19KT 06/01 A3018 RMK A01 T00560014  RH  075%=      5-min Rain = 0
KAM3 171157Z 35011G16KT 06/02 A3019 RMK A01 T00570015  RH  074%=      5-min Rain = 0
KAM3 171158Z 35010KT 06/02 A3019 RMK A01 T00570015  RH  074%=      5-min Rain = 0
KAM3 171159Z 35012KT 06/01 A3019 RMK A01 T00570014  RH  074%=      5-min Rain = 0
KAM3 171200Z 35012KT 06/01 A3019 RMK A01 T00560014  RH  074%=      5-min Rain = 0
KAM3 171201Z 35013KT 06/01 A3019 RMK A01 T00560014  RH  074%=      5-min Rain = 0
KAM3 171202Z 35012KT 06/01 A3019 RMK A01 T00570014  RH  074%=      5-min Rain = 0
KAM3 171203Z 35012KT 06/01 A3019 RMK A01 T00560014  RH  074%=      5-min Rain = 0
KAM3 171204Z 35013KT 06/01 A3019 RMK A01 T00570014  RH  074%=      5-min Rain = 0
KAM3 171205Z 35012KT 06/01 A3019 RMK A01 T00570014  RH  074%=      5-min Rain = 0
KAM3 171206Z 35011KT 06/01 A3019 RMK A01 T00570014  RH  074%=      5-min Rain = 0
KAM3 171207Z 35011KT 06/01 A3019 RMK A01 T00570014  RH  074%=      5-min Rain = 0
KAM3 171208Z 35012KT 06/01 A3019 RMK A01 T00560014  RH  075%=      5-min Rain = 0
KAM3 171209Z 35011KT 06/02 A3019 RMK A01 T00560015  RH  075%=      5-min Rain = 0
KAM3 171210Z 35012KT 06/02 A3019 RMK A01 T00560015  RH  075%=      5-min Rain = 0
KAM3 171211Z 35012KT 06/02 A3019 RMK A01 T00560015  RH  075%=      5-min Rain = 0
KAM3 171212Z 35010KT 06/01 A3019 RMK A01 T00550014  RH  075%=      5-min Rain = 0
KAM3 171213Z 36012KT 05/01 A3019 RMK A01 T00540014  RH  075%=      5-min Rain = 0
KAM3 171214Z 35013KT 05/02 A3019 RMK A01 T00540015  RH  076%=      5-min Rain = 0
KAM3 171215Z 35012KT 06/02 A3019 RMK A01 T00550015  RH  076%=      5-min Rain = 0
KAM3 171216Z 36012KT 06/02 A3019 RMK A01 T00550016  RH  076%=      5-min Rain = 0
KAM3 171217Z 35013KT 06/02 A3019 RMK A01 T00550016  RH  076%=      5-min Rain = 0
KAM3 171218Z 00012KT 06/02 A3019 RMK A01 T00550016  RH  076%=      5-min Rain = 0
KAM3 171219Z 36012KT 06/02 A3019 RMK A01 T00550016  RH  076%=      5-min Rain = 0
KAM3 171220Z 35013KT 06/02 A3019 RMK A01 T00550016  RH  076%=      5-min Rain = 0
KAM3 171221Z 36012KT 06/02 A3019 RMK A01 T00560017  RH  076%=      5-min Rain = 0
KAM3 171222Z 35011KT 06/02 A3019 RMK A01 T00550016  RH  076%=      5-min Rain = 0
KAM3 171223Z 35012KT 06/02 A3019 RMK A01 T00550016  RH  076%=      5-min Rain = 0
KAM3 171224Z 35012KT 06/02 A3019 RMK A01 T00550017  RH  077%=      5-min Rain = 0
KAM3 171225Z 35012KT 05/02 A3019 RMK A01 T00540017  RH  077%=      5-min Rain = 0
KAM3 171226Z 35012KT 05/02 A3019 RMK A01 T00540017  RH  077%=      5-min Rain = 0
KAM3 171227Z 36012KT 05/02 A3019 RMK A01 T00540017  RH  077%=      5-min Rain = 0
KAM3 171228Z 36010G15KT 05/02 A3019 RMK A01 T00540017  RH  077%=      5-min Rain = 0
KAM3 171229Z 36012KT 05/02 A3019 RMK A01 T00530017  RH  077%=      5-min Rain = 0
KAM3 171230Z 35013KT 05/02 A3019 RMK A01 T00530017  RH  078%=      5-min Rain = 0
KAM3 171231Z 36010KT 05/02 A3019 RMK A01 T00540017  RH  077%=      5-min Rain = 0
KAM3 171232Z 36012KT 05/02 A3019 RMK A01 T00540017  RH  077%=      5-min Rain = 0
KAM3 171233Z 36012KT 05/02 A3019 RMK A01 T00540018  RH  078%=      5-min Rain = 0
KAM3 171234Z 36011KT 05/02 A3019 RMK A01 T00540018  RH  078%=      5-min Rain = 0
KAM3 171235Z 36015KT 05/02 A3019 RMK A01 T00530018  RH  078%=      5-min Rain = 0
KAM3 171236Z 36011KT 05/02 A3019 RMK A01 T00540019  RH  078%=      5-min Rain = 0
KAM3 171237Z 36011KT 06/02 A3019 RMK A01 T00550018  RH  077%=      5-min Rain = 0
KAM3 171238Z 36010KT 05/02 A3019 RMK A01 T00540018  RH  077%=      5-min Rain = 0
KAM3 171239Z 00011KT 05/02 A3019 RMK A01 T00540018  RH  078%=      5-min Rain = 0
KAM3 171240Z 35010KT 05/02 A3019 RMK A01 T00530018  RH  078%=      5-min Rain = 0
KAM3 171241Z 35009KT 05/02 A3019 RMK A01 T00520017  RH  078%=      5-min Rain = 0
KAM3 171242Z 35009KT 05/02 A302 RMK A01 T00520017  RH  078%=      5-min Rain = 0
KAM3 171243Z 36009KT 05/02 A302 RMK A01 T00510017  RH  078%=      5-min Rain = 0
KAM3 171244Z 36009KT 05/02 A302 RMK A01 T00510017  RH  079%=      5-min Rain = 0
KAM3 171245Z 35009KT 05/02 A302 RMK A01 T00500017  RH  079%=      5-min Rain = 0
KAM3 171246Z 35009KT 05/02 A302 RMK A01 T00500017  RH  079%=      5-min Rain = 0
KAM3 171247Z 34009KT 05/02 A302 RMK A01 T00500017  RH  079%=      5-min Rain = 0
KAM3 171248Z 34009KT 05/02 A302 RMK A01 T00500017  RH  079%=      5-min Rain = 0
KAM3 171249Z 34009KT 05/02 A302 RMK A01 T00500017  RH  080%=      5-min Rain = 0
KAM3 171250Z 34007KT 05/02 A302 RMK A01 T00500017  RH  079%=      5-min Rain = 0
KAM3 171251Z 34008KT 05/02 A302 RMK A01 T00490016  RH  080%=      5-min Rain = 0
KAM3 171252Z 34008KT 05/02 A302 RMK A01 T00480017  RH  080%=      5-min Rain = 0
KAM3 171253Z 33006KT 05/02 A302 RMK A01 T00480017  RH  080%=      5-min Rain = 0
KAM3 171254Z 33007KT 05/02 A302 RMK A01 T00480017  RH  080%=      5-min Rain = 0
KAM3 171255Z 33008KT 05/02 A3021 RMK A01 T00470016  RH  081%=      5-min Rain = 0
KAM3 171256Z 32008KT 05/02 A3021 RMK A01 T00470017  RH  081%=      5-min Rain = 0
KAM3 171257Z 32008KT 05/02 A3021 RMK A01 T00460017  RH  081%=      5-min Rain = 0
KAM3 171258Z 32007KT 05/02 A3021 RMK A01 T00460017  RH  081%=      5-min Rain = 0
KAM3 171259Z 33007KT 05/02 A3021 RMK A01 T00460016  RH  081%=      5-min Rain = 0
KAM3 171300Z 33007KT 05/02 A3021 RMK A01 T00450016  RH  081%=      5-min Rain = 0
KAM3 171301Z 32007KT 05/02 A3021 RMK A01 T00450016  RH  082%=      5-min Rain = 0
KAM3 171302Z 33007KT 05/02 A3021 RMK A01 T00450017  RH  082%=      5-min Rain = 0
KAM3 171303Z 32007KT 05/02 A3021 RMK A01 T00450016  RH  081%=      5-min Rain = 0
KAM3 171304Z 33008KT 05/02 A3021 RMK A01 T00450016  RH  082%=      5-min Rain = 0
KAM3 171305Z 32007KT 05/02 A3021 RMK A01 T00450017  RH  082%=      5-min Rain = 0
KAM3 171306Z 32007KT 04/02 A3021 RMK A01 T00440017  RH  082%=      5-min Rain = 0
KAM3 171307Z 33007KT 04/02 A3021 RMK A01 T00440017  RH  082%=      5-min Rain = 0
KAM3 171308Z 33007KT 04/02 A3021 RMK A01 T00440017  RH  082%=      5-min Rain = 0
KAM3 171309Z 32006KT 04/02 A3021 RMK A01 T00430017  RH  083%=      5-min Rain = 0
KAM3 171310Z 33006KT 04/02 A3021 RMK A01 T00430017  RH  083%=      5-min Rain = 0
KAM3 171311Z 33007KT 04/02 A3021 RMK A01 T00430017  RH  083%=      5-min Rain = 0
KAM3 171312Z 33006KT 04/02 A3021 RMK A01 T00430017  RH  084%=      5-min Rain = 0
KAM3 171313Z 33007KT 04/02 A3021 RMK A01 T00420017  RH  084%=      5-min Rain = 0
KAM3 171314Z 33007KT 04/02 A3021 RMK A01 T00420017  RH  084%=      5-min Rain = 0
KAM3 171315Z 33008KT 04/02 A3021 RMK A01 T00420017  RH  084%=      5-min Rain = 0
KAM3 171316Z 33008KT 04/02 A3021 RMK A01 T00410017  RH  084%=      5-min Rain = 0
KAM3 171317Z 34007KT 04/02 A3021 RMK A01 T00410017  RH  084%=      5-min Rain = 0
KAM3 171318Z 34008KT 04/02 A3021 RMK A01 T00410017  RH  084%=      5-min Rain = 0
KAM3 171319Z 34008KT 04/02 A3021 RMK A01 T00410017  RH  084%=      5-min Rain = 0
KAM3 171320Z 34009KT 04/02 A3021 RMK A01 T00410017  RH  085%=      5-min Rain = 0
KAM3 171321Z 35010KT 04/02 A3021 RMK A01 T00410018  RH  085%=      5-min Rain = 0
KAM3 171322Z 35008KT 04/02 A3021 RMK A01 T00410018  RH  085%=      5-min Rain = 0
KAM3 171323Z 35009KT 04/02 A3021 RMK A01 T00410017  RH  084%=      5-min Rain = 0
KAM3 171324Z 35009KT 04/02 A3021 RMK A01 T00410018  RH  085%=      5-min Rain = 0
KAM3 171325Z 35010KT 04/02 A3021 RMK A01 T00400017  RH  085%=      5-min Rain = 0
KAM3 171326Z 35010KT 04/02 A3021 RMK A01 T00400018  RH  085%=      5-min Rain = 0
KAM3 171327Z 35009KT 04/02 A3021 RMK A01 T00400018  RH  086%=      5-min Rain = 0
KAM3 171328Z 35010KT 04/02 A3021 RMK A01 T00400018  RH  085%=      5-min Rain = 0
KAM3 171329Z 35010KT 04/02 A3021 RMK A01 T00400018  RH  086%=      5-min Rain = 0
KAM3 171330Z 35010KT 04/02 A3021 RMK A01 T00410019  RH  086%=      5-min Rain = 0
KAM3 171331Z 35010KT 04/02 A3021 RMK A01 T00410018  RH  085%=      5-min Rain = 0
KAM3 171332Z 35010KT 04/02 A3021 RMK A01 T00410018  RH  085%=      5-min Rain = 0
KAM3 171333Z 35010KT 04/02 A3021 RMK A01 T00410018  RH  085%=      5-min Rain = 0
KAM3 171334Z 35011KT 04/02 A3021 RMK A01 T00410019  RH  085%=      5-min Rain = 0
KAM3 171335Z 35010KT 04/02 A3021 RMK A01 T00420020  RH  086%=      5-min Rain = 0
KAM3 171336Z 36010KT 04/02 A3021 RMK A01 T00420019  RH  085%=      5-min Rain = 0
KAM3 171337Z 36009KT 04/02 A3021 RMK A01 T00420019  RH  085%=      5-min Rain = 0
KAM3 171338Z 35010KT 04/02 A3021 RMK A01 T00420020  RH  085%=      5-min Rain = 0
KAM3 171339Z 35009KT 04/02 A3021 RMK A01 T00430020  RH  085%=      5-min Rain = 0
KAM3 171340Z 35009KT 04/02 A3021 RMK A01 T00430020  RH  085%=      5-min Rain = 0
KAM3 171341Z 34009KT 04/02 A3021 RMK A01 T00440020  RH  085%=      5-min Rain = 0
KAM3 171342Z 35008KT 04/02 A3021 RMK A01 T00440020  RH  085%=      5-min Rain = 0
KAM3 171343Z 34008KT 04/02 A3021 RMK A01 T00440020  RH  084%=      5-min Rain = 0
KAM3 171344Z 34007KT 04/02 A3021 RMK A01 T00440020  RH  084%=      5-min Rain = 0
KAM3 171345Z 34007KT 04/02 A3021 RMK A01 T00440019  RH  084%=      5-min Rain = 0
KAM3 171346Z 33006KT 04/02 A3022 RMK A01 T00440019  RH  084%=      5-min Rain = 0
KAM3 171347Z 33006KT 04/02 A3022 RMK A01 T00440019  RH  084%=      5-min Rain = 0
KAM3 171348Z 33006KT 04/02 A3022 RMK A01 T00440020  RH  084%=      5-min Rain = 0
KAM3 171349Z 32006KT 04/02 A3022 RMK A01 T00440019  RH  084%=      5-min Rain = 0
KAM3 171350Z 32006KT 04/02 A3022 RMK A01 T00440020  RH  084%=      5-min Rain = 0
KAM3 171351Z 32006KT 04/02 A3022 RMK A01 T00440019  RH  084%=      5-min Rain = 0
KAM3 171352Z 31006KT 04/02 A3022 RMK A01 T00440019  RH  084%=      5-min Rain = 0
KAM3 171353Z 31006KT 04/02 A3022 RMK A01 T00440019  RH  084%=      5-min Rain = 0
KAM3 171354Z 31006KT 04/02 A3022 RMK A01 T00440019  RH  084%=      5-min Rain = 0
KAM3 171355Z 31006KT 04/02 A3022 RMK A01 T00430019  RH  084%=      5-min Rain = 0
KAM3 171356Z 31006KT 04/02 A3022 RMK A01 T00430019  RH  084%=      5-min Rain = 0
KAM3 171357Z 32006KT 04/02 A3022 RMK A01 T00430019  RH  084%=      5-min Rain = 0
KAM3 171358Z 32006KT 04/02 A3022 RMK A01 T00430019  RH  084%=      5-min Rain = 0
KAM3 171359Z 32007KT 04/02 A3022 RMK A01 T00440019  RH  084%=      5-min Rain = 0
KAM3 171400Z 32007KT 04/02 A3022 RMK A01 T00440020  RH  084%=      5-min Rain = 0
KAM3 171401Z 32007KT 05/02 A3022 RMK A01 T00450020  RH  084%=      5-min Rain = 0
KAM3 171402Z 32008KT 05/02 A3022 RMK A01 T00450020  RH  084%=      5-min Rain = 0
KAM3 171403Z 32007KT 05/02 A3022 RMK A01 T00460020  RH  083%=      5-min Rain = 0
KAM3 171404Z 32008KT 05/02 A3022 RMK A01 T00460020  RH  083%=      5-min Rain = 0
KAM3 171405Z 33008KT 05/02 A3022 RMK A01 T00460020  RH  083%=      5-min Rain = 0
KAM3 171406Z 33008KT 05/02 A3022 RMK A01 T00470020  RH  083%=      5-min Rain = 0
KAM3 171407Z 34009KT 05/02 A3022 RMK A01 T00470021  RH  083%=      5-min Rain = 0
KAM3 171408Z 34008KT 05/02 A3022 RMK A01 T00470021  RH  083%=      5-min Rain = 0
KAM3 171409Z 34009KT 05/02 A3022 RMK A01 T00480021  RH  083%=      5-min Rain = 0
KAM3 171410Z 34009KT 05/02 A3022 RMK A01 T00480021  RH  083%=      5-min Rain = 0
KAM3 171411Z 34010KT 05/02 A3022 RMK A01 T00490021  RH  082%=      5-min Rain = 0
KAM3 171412Z 34011KT 05/02 A3021 RMK A01 T00490021  RH  082%=      5-min Rain = 0
KAM3 171413Z 34011KT 05/02 A3021 RMK A01 T00490021  RH  082%=      5-min Rain = 0
KAM3 171414Z 34010KT 05/02 A3021 RMK A01 T00500021  RH  082%=      5-min Rain = 0
KAM3 171415Z 34010KT 05/02 A3021 RMK A01 T00500021  RH  082%=      5-min Rain = 0
KAM3 171416Z 34010KT 05/02 A3021 RMK A01 T00500022  RH  082%=      5-min Rain = 0
KAM3 171417Z 34011KT 05/02 A3021 RMK A01 T00500021  RH  081%=      5-min Rain = 0
KAM3 171418Z 34010KT 05/02 A3021 RMK A01 T00510021  RH  081%=      5-min Rain = 0
KAM3 171419Z 34010KT 05/02 A3021 RMK A01 T00510021  RH  081%=      5-min Rain = 0
KAM3 171420Z 34010KT 05/02 A3021 RMK A01 T00510021  RH  081%=      5-min Rain = 0
KAM3 171421Z 34010KT 05/02 A3021 RMK A01 T00520021  RH  081%=      5-min Rain = 0
KAM3 171422Z 34009KT 05/02 A3021 RMK A01 T00520021  RH  081%=      5-min Rain = 0
KAM3 171423Z 34010KT 05/02 A3021 RMK A01 T00520021  RH  080%=      5-min Rain = 0
KAM3 171424Z 34010KT 05/02 A3021 RMK A01 T00530021  RH  080%=      5-min Rain = 0
KAM3 171425Z 34008KT 05/02 A3022 RMK A01 T00530021  RH  080%=      5-min Rain = 0
KAM3 171426Z 34008KT 05/02 A3022 RMK A01 T00540022  RH  080%=      5-min Rain = 0
KAM3 171427Z 34007KT 05/02 A3022 RMK A01 T00540021  RH  079%=      5-min Rain = 0
KAM3 171428Z 34007KT 06/02 A3022 RMK A01 T00550022  RH  079%=      5-min Rain = 0
KAM3 171429Z 33008KT 06/02 A3022 RMK A01 T00550022  RH  079%=      5-min Rain = 0
KAM3 171430Z 33007KT 06/02 A3022 RMK A01 T00560022  RH  079%=      5-min Rain = 0
KAM3 171431Z 34008KT 06/02 A3022 RMK A01 T00560021  RH  078%=      5-min Rain = 0
KAM3 171432Z 33008KT 06/02 A3022 RMK A01 T00560021  RH  078%=      5-min Rain = 0
KAM3 171433Z 33005KT 06/02 A3022 RMK A01 T00570021  RH  078%=      5-min Rain = 0
KAM3 171434Z 34008KT 06/02 A3022 RMK A01 T00580022  RH  078%=      5-min Rain = 0
KAM3 171435Z 33006KT 06/02 A3022 RMK A01 T00580022  RH  078%=      5-min Rain = 0
KAM3 171436Z 33006KT 06/02 A3022 RMK A01 T00580022  RH  078%=      5-min Rain = 0
KAM3 171437Z 33007KT 06/02 A3022 RMK A01 T00590022  RH  077%=      5-min Rain = 0
KAM3 171438Z 33008KT 06/02 A3022 RMK A01 T00590022  RH  077%=      5-min Rain = 0
KAM3 171439Z 33007KT 06/02 A3022 RMK A01 T00600022  RH  077%=      5-min Rain = 0
KAM3 171440Z 34007KT 06/02 A3022 RMK A01 T00600022  RH  077%=      5-min Rain = 0
KAM3 171441Z 34007KT 06/02 A3022 RMK A01 T00610023  RH  077%=      5-min Rain = 0
KAM3 171442Z 34009KT 06/02 A3022 RMK A01 T00620023  RH  076%=      5-min Rain = 0
KAM3 171443Z 34009KT 06/02 A3022 RMK A01 T00620023  RH  076%=      5-min Rain = 0
KAM3 171444Z 35010KT 06/02 A3022 RMK A01 T00620023  RH  076%=      5-min Rain = 0
KAM3 171445Z 35010KT 06/02 A3022 RMK A01 T00620022  RH  076%=      5-min Rain = 0
KAM3 171446Z 34010KT 06/02 A3022 RMK A01 T00630022  RH  075%=      5-min Rain = 0
KAM3 171447Z 35010KT 06/02 A3022 RMK A01 T00630023  RH  076%=      5-min Rain = 0
KAM3 171448Z 35010KT 06/02 A3022 RMK A01 T00640024  RH  075%=      5-min Rain = 0
KAM3 171449Z 36010G15KT 07/02 A3022 RMK A01 T00660023  RH  074%=      5-min Rain = 0
KAM3 171450Z 35012KT 07/02 A3022 RMK A01 T00670023  RH  074%=      5-min Rain = 0
KAM3 171451Z 35012KT 07/02 A3022 RMK A01 T00670022  RH  073%=      5-min Rain = 0
KAM3 171452Z 36012KT 07/02 A3022 RMK A01 T00670023  RH  073%=      5-min Rain = 0
KAM3 171453Z 36011KT 07/02 A3022 RMK A01 T00690024  RH  073%=      5-min Rain = 0
KAM3 171454Z 35010KT 07/02 A3022 RMK A01 T00690024  RH  073%=      5-min Rain = 0
KAM3 171455Z 36011KT 07/02 A3022 RMK A01 T00700024  RH  072%=      5-min Rain = 0
KAM3 171456Z 00010KT 07/02 A3022 RMK A01 T00700023  RH  072%=      5-min Rain = 0
KAM3 171457Z 36013KT 07/02 A3022 RMK A01 T00720024  RH  071%=      5-min Rain = 0
KAM3 171458Z 35013KT 07/02 A3022 RMK A01 T00720023  RH  071%=      5-min Rain = 0
KAM3 171459Z 00012KT 07/02 A3022 RMK A01 T00720023  RH  071%=      5-min Rain = 0
KAM3 171500Z 35009KT 07/02 A3022 RMK A01 T00740024  RH  070%=      5-min Rain = 0
KAM3 171501Z 36009KT 08/02 A3022 RMK A01 T00750024  RH  070%=      5-min Rain = 0
KAM3 171502Z 36010G16KT 08/03 A3022 RMK A01 T00770025  RH  070%=      5-min Rain = 0
KAM3 171503Z 00015KT 08/02 A3022 RMK A01 T00780024  RH  069%=      5-min Rain = 0
KAM3 171504Z 36015KT 08/02 A3022 RMK A01 T00780022  RH  068%=      5-min Rain = 0
KAM3 171505Z 00014KT 08/02 A3022 RMK A01 T00770022  RH  068%=      5-min Rain = 0
KAM3 171506Z 01012KT 08/02 A3022 RMK A01 T00770022  RH  068%=      5-min Rain = 0
KAM3 171507Z 01010KT 08/02 A3022 RMK A01 T00770022  RH  068%=      5-min Rain = 0
KAM3 171508Z 36009KT 08/02 A3022 RMK A01 T00780023  RH  068%=      5-min Rain = 0
KAM3 171509Z 35012KT 08/02 A3022 RMK A01 T00790023  RH  067%=      5-min Rain = 0
KAM3 171510Z 36011KT 08/02 A3022 RMK A01 T00790022  RH  067%=      5-min Rain = 0
KAM3 171511Z 00011KT 08/02 A3022 RMK A01 T00790022  RH  067%=      5-min Rain = 0
KAM3 171512Z 01012KT 08/02 A3022 RMK A01 T00790021  RH  067%=      5-min Rain = 0
KAM3 171513Z 01010KT 08/02 A3022 RMK A01 T00800021  RH  067%=      5-min Rain = 0
KAM3 171514Z 01011KT 08/02 A3022 RMK A01 T00810023  RH  067%=      5-min Rain = 0
KAM3 171515Z 01010KT 08/02 A3022 RMK A01 T00820023  RH  066%=      5-min Rain = 0
KAM3 171516Z 00011KT 08/02 A3022 RMK A01 T00820023  RH  066%=      5-min Rain = 0
KAM3 171517Z 02009KT 08/02 A3022 RMK A01 T00820022  RH  066%=      5-min Rain = 0
KAM3 171518Z 01009KT 08/02 A3022 RMK A01 T00830023  RH  066%=      5-min Rain = 0
KAM3 171519Z 01011KT 08/02 A3022 RMK A01 T00840023  RH  065%=      5-min Rain = 0
KAM3 171520Z 36011KT 08/02 A3022 RMK A01 T00840022  RH  065%=      5-min Rain = 0
KAM3 171521Z 00012KT 08/02 A3022 RMK A01 T00840022  RH  065%=      5-min Rain = 0
KAM3 171522Z 00014KT 08/02 A3022 RMK A01 T00840022  RH  065%=      5-min Rain = 0
KAM3 171523Z 01012KT 08/02 A3022 RMK A01 T00840022  RH  065%=      5-min Rain = 0
KAM3 171524Z 01013KT 08/02 A3022 RMK A01 T00840022  RH  065%=      5-min Rain = 0
KAM3 171525Z 01013KT 08/02 A3022 RMK A01 T00840021  RH  065%=      5-min Rain = 0
KAM3 171526Z 02011KT 08/02 A3022 RMK A01 T00840022  RH  065%=      5-min Rain = 0
KAM3 171527Z 01012KT 09/02 A3021 RMK A01 T00850023  RH  065%=      5-min Rain = 0
KAM3 171528Z 02012KT 09/02 A3022 RMK A01 T00860022  RH  064%=      5-min Rain = 0
KAM3 171529Z 01014KT 09/02 A3022 RMK A01 T00870022  RH  064%=      5-min Rain = 0
KAM3 171530Z 00014KT 09/02 A3022 RMK A01 T00870021  RH  063%=      5-min Rain = 0
KAM3 171531Z 01012KT 09/02 A3022 RMK A01 T00860020  RH  063%=      5-min Rain = 0
KAM3 171532Z 00013KT 09/02 A3022 RMK A01 T00860022  RH  064%=      5-min Rain = 0
KAM3 171533Z 00015KT 09/02 A3021 RMK A01 T00860021  RH  064%=      5-min Rain = 0
KAM3 171534Z 01012KT 09/02 A3021 RMK A01 T00870021  RH  063%=      5-min Rain = 0
KAM3 171535Z 00012KT 09/02 A3021 RMK A01 T00870022  RH  064%=      5-min Rain = 0
KAM3 171536Z 01010KT 09/02 A3021 RMK A01 T00890023  RH  063%=      5-min Rain = 0
KAM3 171537Z 00010KT 09/02 A3021 RMK A01 T00900023  RH  063%=      5-min Rain = 0
KAM3 171538Z 00011G16KT 09/02 A3021 RMK A01 T00920024  RH  062%=      5-min Rain = 0
KAM3 171539Z 01015KT 09/02 A3022 RMK A01 T00930022  RH  061%=      5-min Rain = 0
KAM3 171540Z 36012KT 09/02 A3022 RMK A01 T00910020  RH  061%=      5-min Rain = 0
KAM3 171541Z 01011KT 09/02 A3022 RMK A01 T00900021  RH  062%=      5-min Rain = 0
KAM3 171542Z 01009KT 09/02 A3022 RMK A01 T00900022  RH  062%=      5-min Rain = 0
KAM3 171543Z 02009KT 09/02 A3022 RMK A01 T00920023  RH  062%=      5-min Rain = 0
KAM3 171544Z 00010KT 09/02 A3022 RMK A01 T00930022  RH  061%=      5-min Rain = 0
KAM3 171545Z 36011KT 09/02 A3022 RMK A01 T00920022  RH  061%=      5-min Rain = 0
KAM3 171546Z 01011KT 09/02 A3022 RMK A01 T00920022  RH  061%=      5-min Rain = 0
KAM3 171547Z 01009KT 09/02 A3022 RMK A01 T00920021  RH  061%=      5-min Rain = 0
KAM3 171548Z 01010G15KT 09/02 A3022 RMK A01 T00930021  RH  061%=      5-min Rain = 0
KAM3 171549Z 01012KT 10/02 A3022 RMK A01 T00950022  RH  060%=      5-min Rain = 0
KAM3 171550Z 01010KT 09/02 A3022 RMK A01 T00940021  RH  060%=      5-min Rain = 0
KAM3 171551Z 01012KT 10/02 A3022 RMK A01 T00950021  RH  060%=      5-min Rain = 0
KAM3 171552Z 01012G17KT 10/02 A3022 RMK A01 T00950018  RH  059%=      5-min Rain = 0
KAM3 171553Z 36011KT 09/02 A3022 RMK A01 T00920019  RH  060%=      5-min Rain = 0
KAM3 171554Z 00014KT 09/02 A3022 RMK A01 T00940021  RH  060%=      5-min Rain = 0
KAM3 171555Z 00011KT 09/02 A3022 RMK A01 T00940019  RH  059%=      5-min Rain = 0
KAM3 171556Z 36011KT 10/02 A3022 RMK A01 T00950021  RH  060%=      5-min Rain = 0
KAM3 171557Z 36013KT 10/02 A3022 RMK A01 T00960020  RH  059%=      5-min Rain = 0
KAM3 171558Z 36013G19KT 10/02 A3021 RMK A01 T00970020  RH  059%=      5-min Rain = 0
KAM3 171559Z 01014KT 10/02 A3022 RMK A01 T00960019  RH  059%=      5-min Rain = 0
KAM3 171600Z 02012KT 10/02 A3022 RMK A01 T00950019  RH  059%=      5-min Rain = 0
KAM3 171601Z 02012KT 10/02 A3022 RMK A01 T00960019  RH  059%=      5-min Rain = 0
KAM3 171602Z 02013KT 10/02 A3021 RMK A01 T00970020  RH  059%=      5-min Rain = 0
KAM3 171603Z 01013KT 10/02 A3021 RMK A01 T00970020  RH  059%=      5-min Rain = 0
KAM3 171604Z 00012KT 10/02 A3021 RMK A01 T00960018  RH  058%=      5-min Rain = 0
KAM3 171605Z 00012KT 10/02 A3021 RMK A01 T00950019  RH  059%=      5-min Rain = 0
KAM3 171606Z 00011KT 10/02 A3022 RMK A01 T00960018  RH  058%=      5-min Rain = 0
KAM3 171607Z 00014KT 10/02 A3022 RMK A01 T00950019  RH  059%=      5-min Rain = 0
KAM3 171608Z 00010KT 10/02 A3022 RMK A01 T00950018  RH  059%=      5-min Rain = 0
KAM3 171609Z 00009KT 10/02 A3022 RMK A01 T00970020  RH  059%=      5-min Rain = 0
KAM3 171610Z 35008KT 10/02 A3021 RMK A01 T00970019  RH  058%=      5-min Rain = 0
KAM3 171611Z 35012KT 10/02 A3021 RMK A01 T00980020  RH  058%=      5-min Rain = 0
KAM3 171612Z 35011KT 10/02 A3021 RMK A01 T00980018  RH  057%=      5-min Rain = 0
KAM3 171613Z 01011KT 10/02 A3021 RMK A01 T00970018  RH  058%=      5-min Rain = 0
KAM3 171614Z 02011KT 10/02 A3021 RMK A01 T00970019  RH  058%=      5-min Rain = 0
KAM3 171615Z 02010KT 10/02 A3021 RMK A01 T00980019  RH  058%=      5-min Rain = 0
KAM3 171616Z 03011KT 10/02 A3021 RMK A01 T00970018  RH  058%=      5-min Rain = 0
KAM3 171617Z 01008KT 10/02 A3021 RMK A01 T00950017  RH  058%=      5-min Rain = 0
KAM3 171618Z 01010KT 10/02 A3021 RMK A01 T00950018  RH  059%=      5-min Rain = 0
KAM3 171619Z 02011KT 09/02 A3021 RMK A01 T00940018  RH  059%=      5-min Rain = 0
KAM3 171620Z 01011KT 10/02 A3021 RMK A01 T00960018  RH  058%=      5-min Rain = 0
KAM3 171621Z 01011KT 10/02 A3021 RMK A01 T00970018  RH  058%=      5-min Rain = 0
KAM3 171622Z 02008KT 10/02 A3021 RMK A01 T00990019  RH  058%=      5-min Rain = 0
KAM3 171623Z 03010KT 10/02 A3021 RMK A01 T01010020  RH  057%=      5-min Rain = 0
KAM3 171624Z 02011KT 10/02 A3021 RMK A01 T01030020  RH  056%=      5-min Rain = 0
KAM3 171625Z 02011KT 11/02 A3021 RMK A01 T01050020  RH  056%=      5-min Rain = 0
KAM3 171626Z 01012KT 11/02 A3021 RMK A01 T01070020  RH  055%=      5-min Rain = 0
KAM3 171627Z 36011KT 11/02 A3021 RMK A01 T01060016  RH  054%=      5-min Rain = 0
KAM3 171628Z 35009KT 11/02 A3021 RMK A01 T01050018  RH  055%=      5-min Rain = 0
KAM3 171629Z 35010KT 10/02 A3021 RMK A01 T01040018  RH  055%=      5-min Rain = 0
KAM3 171630Z 36011KT 10/02 A3021 RMK A01 T01040018  RH  055%=      5-min Rain = 0
KAM3 171631Z 04010KT 11/02 A3021 RMK A01 T01050020  RH  055%=      5-min Rain = 0
KAM3 171632Z 03011KT 11/02 A3021 RMK A01 T01080020  RH  055%=      5-min Rain = 0
KAM3 171633Z 03013KT 11/02 A3021 RMK A01 T01080018  RH  054%=      5-min Rain = 0
KAM3 171634Z 02011KT 11/02 A3021 RMK A01 T01060017  RH  054%=      5-min Rain = 0
KAM3 171635Z 03011KT 11/02 A3021 RMK A01 T01050017  RH  054%=      5-min Rain = 0
KAM3 171636Z 02012KT 11/02 A3021 RMK A01 T01050018  RH  055%=      5-min Rain = 0
KAM3 171637Z 00013KT 11/02 A3021 RMK A01 T01050017  RH  054%=      5-min Rain = 0
KAM3 171638Z 01014KT 10/02 A3021 RMK A01 T01040015  RH  054%=      5-min Rain = 0
KAM3 171639Z 02012KT 11/02 A3021 RMK A01 T01050016  RH  054%=      5-min Rain = 0
KAM3 171640Z 01009KT 11/02 A3021 RMK A01 T01060018  RH  054%=      5-min Rain = 0
KAM3 171641Z 02009KT 11/02 A3021 RMK A01 T01090019  RH  054%=      5-min Rain = 0
KAM3 171642Z 03012KT 11/02 A3021 RMK A01 T01090018  RH  053%=      5-min Rain = 0
KAM3 171643Z 02011KT 11/02 A3021 RMK A01 T01100018  RH  053%=      5-min Rain = 0
KAM3 171644Z 02012KT 11/02 A3021 RMK A01 T01100018  RH  053%=      5-min Rain = 0
KAM3 171645Z 02014KT 11/02 A3021 RMK A01 T01100017  RH  053%=      5-min Rain = 0
KAM3 171646Z 02010KT 11/02 A3021 RMK A01 T01090017  RH  053%=      5-min Rain = 0
KAM3 171647Z 01008KT 11/02 A3021 RMK A01 T01090018  RH  053%=      5-min Rain = 0
KAM3 171648Z 00009KT 11/02 A3021 RMK A01 T01090017  RH  053%=      5-min Rain = 0
KAM3 171649Z 01009KT 11/02 A3021 RMK A01 T01100018  RH  053%=      5-min Rain = 0
KAM3 171650Z 36010KT 11/02 A3021 RMK A01 T01100019  RH  053%=      5-min Rain = 0
KAM3 171651Z 35008KT 11/02 A3021 RMK A01 T01100017  RH  053%=      5-min Rain = 0
KAM3 171652Z 35009KT 11/02 A3021 RMK A01 T01100019  RH  054%=      5-min Rain = 0
KAM3 171653Z 01012KT 11/02 A3021 RMK A01 T01130021  RH  053%=      5-min Rain = 0
KAM3 171654Z 00008KT 11/02 A3021 RMK A01 T01130019  RH  053%=      5-min Rain = 0
KAM3 171655Z 02008KT 11/02 A3021 RMK A01 T01130020  RH  053%=      5-min Rain = 0
KAM3 171656Z 03012KT 12/02 A3021 RMK A01 T01150020  RH  052%=      5-min Rain = 0
KAM3 171657Z 03011KT 11/02 A3021 RMK A01 T01130018  RH  052%=      5-min Rain = 0
KAM3 171658Z 02010KT 11/02 A3021 RMK A01 T01120019  RH  053%=      5-min Rain = 0
KAM3 171659Z 02009KT 11/02 A3021 RMK A01 T01120018  RH  052%=      5-min Rain = 0
KAM3 171700Z 02013KT 11/02 A3021 RMK A01 T01110018  RH  053%=      5-min Rain = 0
KAM3 171701Z 03012KT 11/02 A3021 RMK A01 T01110017  RH  052%=      5-min Rain = 0
KAM3 171702Z 02012KT 11/02 A3021 RMK A01 T01110017  RH  052%=      5-min Rain = 0
KAM3 171703Z 01010KT 11/02 A3021 RMK A01 T01110017  RH  053%=      5-min Rain = 0
KAM3 171704Z 02007KT 11/02 A3021 RMK A01 T01110019  RH  053%=      5-min Rain = 0
KAM3 171705Z 00008KT 11/02 A3021 RMK A01 T01130018  RH  052%=      5-min Rain = 0
KAM3 171706Z 02009KT 11/02 A3021 RMK A01 T01120017  RH  052%=      5-min Rain = 0
KAM3 171707Z 02011KT 11/02 A3021 RMK A01 T01110016  RH  052%=      5-min Rain = 0
KAM3 171708Z 01013KT 11/02 A3021 RMK A01 T01120016  RH  052%=      5-min Rain = 0
KAM3 171709Z 01010KT 11/02 A3021 RMK A01 T01110016  RH  052%=      5-min Rain = 0
KAM3 171710Z 02009KT 11/02 A3021 RMK A01 T01110017  RH  052%=      5-min Rain = 0
KAM3 171711Z 02010G15KT 11/02 A3021 RMK A01 T01130019  RH  052%=      5-min Rain = 0
KAM3 171712Z 02011KT 11/02 A3021 RMK A01 T01140017  RH  051%=      5-min Rain = 0
KAM3 171713Z 02009KT 11/02 A3021 RMK A01 T01140016  RH  051%=      5-min Rain = 0
KAM3 171714Z 02010KT 12/02 A3021 RMK A01 T01150018  RH  051%=      5-min Rain = 0
KAM3 171715Z 36009KT 12/02 A3021 RMK A01 T01170019  RH  051%=      5-min Rain = 0
KAM3 171716Z 35011KT 12/02 A3021 RMK A01 T01170019  RH  051%=      5-min Rain = 0
KAM3 171717Z 01009KT 12/02 A3021 RMK A01 T01170019  RH  051%=      5-min Rain = 0
KAM3 171718Z 00011KT 12/02 A3021 RMK A01 T01170017  RH  050%=      5-min Rain = 0
KAM3 171719Z 36012KT 12/02 A3021 RMK A01 T01170017  RH  050%=      5-min Rain = 0
KAM3 171720Z 00014KT 12/02 A3021 RMK A01 T01190017  RH  049%=      5-min Rain = 0
KAM3 171721Z 02012KT 12/02 A3021 RMK A01 T01190017  RH  049%=      5-min Rain = 0
KAM3 171722Z 01010KT 12/02 A3022 RMK A01 T01190016  RH  049%=      5-min Rain = 0
KAM3 171723Z 01010KT 12/02 A3022 RMK A01 T01180016  RH  050%=      5-min Rain = 0
KAM3 171724Z 02009KT 12/02 A3022 RMK A01 T01170017  RH  050%=      5-min Rain = 0
KAM3 171725Z 01010KT 12/02 A3022 RMK A01 T01180017  RH  050%=      5-min Rain = 0
KAM3 171726Z 35011KT 12/02 A3022 RMK A01 T01190018  RH  050%=      5-min Rain = 0
KAM3 171727Z 35008G14KT 12/02 A3022 RMK A01 T01180019  RH  050%=      5-min Rain = 0
KAM3 171728Z 01011KT 12/02 A3022 RMK A01 T01190018  RH  050%=      5-min Rain = 0
KAM3 171729Z 01012KT 12/02 A3022 RMK A01 T01210018  RH  049%=      5-min Rain = 0
KAM3 171730Z 01014KT 12/02 A3022 RMK A01 T01220017  RH  049%=      5-min Rain = 0
KAM3 171731Z 01013KT 12/02 A3022 RMK A01 T01190017  RH  050%=      5-min Rain = 0
KAM3 171732Z 01012KT 12/02 A3022 RMK A01 T01170017  RH  050%=      5-min Rain = 0
KAM3 171733Z 02009KT 12/02 A3022 RMK A01 T01160018  RH  051%=      5-min Rain = 0
KAM3 171734Z 35010KT 12/02 A3021 RMK A01 T01160019  RH  051%=      5-min Rain = 0
KAM3 171735Z 35009KT 12/02 A3021 RMK A01 T01170018  RH  051%=      5-min Rain = 0
KAM3 171736Z 01011KT 12/02 A3022 RMK A01 T01160018  RH  051%=      5-min Rain = 0
KAM3 171737Z 02009KT 12/02 A3022 RMK A01 T01190019  RH  051%=      5-min Rain = 0
KAM3 171738Z 03008KT 12/02 A3022 RMK A01 T01220020  RH  050%=      5-min Rain = 0
KAM3 171739Z 36012KT 13/02 A3022 RMK A01 T01270021  RH  049%=      5-min Rain = 0
KAM3 171740Z 34014KT 13/02 A3022 RMK A01 T01250018  RH  048%=      5-min Rain = 0
KAM3 171741Z 33010KT 12/02 A3022 RMK A01 T01220017  RH  049%=      5-min Rain = 0
KAM3 171742Z 32009KT 12/02 A3021 RMK A01 T01210018  RH  049%=      5-min Rain = 0
KAM3 171743Z 35010KT 12/02 A3021 RMK A01 T01220019  RH  049%=      5-min Rain = 0
KAM3 171744Z 01008KT 12/02 A3021 RMK A01 T01210019  RH  050%=      5-min Rain = 0
KAM3 171745Z 36011KT 12/02 A3021 RMK A01 T01190020  RH  051%=      5-min Rain = 0
KAM3 171746Z 35009KT 12/02 A3021 RMK A01 T01200020  RH  051%=      5-min Rain = 0
KAM3 171747Z 01011KT 12/02 A3021 RMK A01 T01210021  RH  050%=      5-min Rain = 0
KAM3 171748Z 00009KT 12/02 A3021 RMK A01 T01220020  RH  050%=      5-min Rain = 0
KAM3 171749Z 01009KT 12/02 A3021 RMK A01 T01210020  RH  050%=      5-min Rain = 0
KAM3 171750Z 02009KT 12/02 A3021 RMK A01 T01220021  RH  050%=      5-min Rain = 0
KAM3 171751Z 01011G17KT 12/02 A3021 RMK A01 T01230021  RH  050%=      5-min Rain = 0
KAM3 171752Z 00014KT 12/02 A3021 RMK A01 T01230021  RH  050%=      5-min Rain = 0
KAM3 171753Z 01012KT 12/02 A3021 RMK A01 T01220020  RH  050%=      5-min Rain = 0
KAM3 171754Z 00007KT 12/02 A3021 RMK A01 T01220021  RH  050%=      5-min Rain = 0
KAM3 171755Z 36007KT 12/02 A3021 RMK A01 T01230021  RH  050%=      5-min Rain = 0
KAM3 171756Z 35010KT 12/02 A3021 RMK A01 T01230022  RH  050%=      5-min Rain = 0
KAM3 171757Z 34008KT 12/02 A3021 RMK A01 T01230021  RH  050%=      5-min Rain = 0
KAM3 171758Z 35010KT 12/02 A3021 RMK A01 T01230021  RH  050%=      5-min Rain = 0
KAM3 171759Z 36010KT 12/02 A3021 RMK A01 T01240022  RH  050%=      5-min Rain = 0
KAM3 171800Z 34009KT 12/02 A3021 RMK A01 T01240021  RH  049%=      5-min Rain = 0
KAM3 171801Z 35009KT 12/02 A3021 RMK A01 T01210020  RH  050%=      5-min Rain = 0
KAM3 171802Z 35011KT 12/02 A3021 RMK A01 T01220022  RH  050%=      5-min Rain = 0
KAM3 171803Z 35011KT 13/02 A3021 RMK A01 T01260022  RH  049%=      5-min Rain = 0
KAM3 171804Z 34009KT 13/02 A3021 RMK A01 T01260020  RH  048%=      5-min Rain = 0
KAM3 171805Z 34009KT 13/02 A302 RMK A01 T01250018  RH  048%=      5-min Rain = 0
KAM3 171806Z 36006KT 12/02 A302 RMK A01 T01230020  RH  049%=      5-min Rain = 0
KAM3 171807Z 00009KT 13/02 A302 RMK A01 T01250021  RH  049%=      5-min Rain = 0
KAM3 171808Z 33007KT 13/02 A302 RMK A01 T01270022  RH  049%=      5-min Rain = 0
KAM3 171809Z 34004KT 13/02 A302 RMK A01 T01280022  RH  048%=      5-min Rain = 0
KAM3 171810Z 34005KT 13/02 A302 RMK A01 T01280020  RH  048%=      5-min Rain = 0
KAM3 171811Z 35005KT 13/02 A302 RMK A01 T01260020  RH  048%=      5-min Rain = 0
KAM3 171812Z 01009KT 13/02 A302 RMK A01 T01260020  RH  048%=      5-min Rain = 0
KAM3 171813Z 01011KT 13/02 A302 RMK A01 T01260019  RH  048%=      5-min Rain = 0
KAM3 171814Z 02008KT 13/02 A302 RMK A01 T01270020  RH  048%=      5-min Rain = 0
KAM3 171815Z 36010KT 13/02 A3019 RMK A01 T01280021  RH  048%=      5-min Rain = 0
KAM3 171816Z 34008KT 13/02 A3019 RMK A01 T01290021  RH  048%=      5-min Rain = 0
KAM3 171817Z 36008KT 13/02 A3019 RMK A01 T01300021  RH  047%=      5-min Rain = 0
KAM3 171818Z 01005KT 13/02 A3019 RMK A01 T01270018  RH  047%=      5-min Rain = 0
KAM3 171819Z 34003KT 12/02 A3019 RMK A01 T01240018  RH  049%=      5-min Rain = 0
KAM3 171820Z 00006KT 12/02 A3019 RMK A01 T01220018  RH  049%=      5-min Rain = 0
KAM3 171821Z 01007KT 12/02 A3019 RMK A01 T01230021  RH  050%=      5-min Rain = 0
KAM3 171822Z 01008KT 13/02 A3019 RMK A01 T01270021  RH  049%=      5-min Rain = 0
KAM3 171823Z 36009KT 13/02 A3019 RMK A01 T01280021  RH  048%=      5-min Rain = 0
KAM3 171824Z 01009KT 13/02 A3019 RMK A01 T01280020  RH  048%=      5-min Rain = 0
KAM3 171825Z 33007KT 13/02 A3019 RMK A01 T01290021  RH  048%=      5-min Rain = 0
KAM3 171826Z 34008KT 13/02 A3019 RMK A01 T01300021  RH  047%=      5-min Rain = 0
KAM3 171827Z 34009KT 13/02 A3018 RMK A01 T01290020  RH  047%=      5-min Rain = 0
KAM3 171828Z 34009KT 13/02 A3018 RMK A01 T01300021  RH  048%=      5-min Rain = 0
KAM3 171829Z 34004KT 13/02 A3018 RMK A01 T01290020  RH  048%=      5-min Rain = 0
KAM3 171830Z 34007KT 13/02 A3018 RMK A01 T01290022  RH  048%=      5-min Rain = 0
KAM3 171831Z 02006KT 13/02 A3018 RMK A01 T01300022  RH  048%=      5-min Rain = 0
KAM3 171832Z 02009KT 13/02 A3018 RMK A01 T01310020  RH  047%=      5-min Rain = 0
KAM3 171833Z 01011KT 13/02 A3018 RMK A01 T01300020  RH  047%=      5-min Rain = 0
KAM3 171834Z 34009KT 13/02 A3018 RMK A01 T01320022  RH  047%=      5-min Rain = 0
KAM3 171835Z 33009KT 13/02 A3018 RMK A01 T01330021  RH  046%=      5-min Rain = 0
KAM3 171836Z 31009KT 13/02 A3018 RMK A01 T01340021  RH  046%=      5-min Rain = 0
KAM3 171837Z 31007KT 13/02 A3018 RMK A01 T01340020  RH  046%=      5-min Rain = 0
KAM3 171838Z 30007KT 13/02 A3018 RMK A01 T01340021  RH  046%=      5-min Rain = 0
KAM3 171839Z 36006KT 14/02 A3018 RMK A01 T01350021  RH  046%=      5-min Rain = 0
KAM3 171840Z 00004KT 14/02 A3018 RMK A01 T01350021  RH  046%=      5-min Rain = 0
KAM3 171841Z 33004KT 13/02 A3018 RMK A01 T01330020  RH  046%=      5-min Rain = 0
KAM3 171842Z 35009KT 13/02 A3017 RMK A01 T01320021  RH  047%=      5-min Rain = 0
KAM3 171843Z 35008KT 13/02 A3017 RMK A01 T01330021  RH  047%=      5-min Rain = 0
KAM3 171844Z 35006KT 13/02 A3017 RMK A01 T01330021  RH  047%=      5-min Rain = 0
KAM3 171845Z 35012KT 13/02 A3017 RMK A01 T01330021  RH  046%=      5-min Rain = 0
KAM3 171846Z 35009KT 13/02 A3017 RMK A01 T01330019  RH  046%=      5-min Rain = 0
KAM3 171847Z 35010KT 13/02 A3017 RMK A01 T01340020  RH  046%=      5-min Rain = 0
KAM3 171848Z 34009KT 13/02 A3017 RMK A01 T01340020  RH  046%=      5-min Rain = 0
KAM3 171849Z 34008KT 13/02 A3017 RMK A01 T01340019  RH  046%=      5-min Rain = 0
KAM3 171850Z 32006KT 13/02 A3017 RMK A01 T01340021  RH  046%=      5-min Rain = 0
KAM3 171851Z 33005KT 14/02 A3017 RMK A01 T01360021  RH  046%=      5-min Rain = 0
KAM3 171852Z 35005KT 14/02 A3017 RMK A01 T01380021  RH  045%=      5-min Rain = 0
KAM3 171853Z 35005KT 14/02 A3017 RMK A01 T01390021  RH  045%=      5-min Rain = 0
KAM3 171854Z 34007KT 14/02 A3017 RMK A01 T01400020  RH  044%=      5-min Rain = 0
KAM3 171855Z 34008KT 14/02 A3017 RMK A01 T01360019  RH  045%=      5-min Rain = 0
KAM3 171856Z 34009KT 14/02 A3017 RMK A01 T01350016  RH  044%=      5-min Rain = 0
KAM3 171857Z 34010KT 13/02 A3017 RMK A01 T01330017  RH  045%=      5-min Rain = 0
KAM3 171858Z 34008KT 13/02 A3017 RMK A01 T01330017  RH  045%=      5-min Rain = 0
KAM3 171859Z 34008KT 13/02 A3017 RMK A01 T01320016  RH  045%=      5-min Rain = 0
KAM3 171900Z 35005KT 13/02 A3016 RMK A01 T01320017  RH  045%=      5-min Rain = 0
KAM3 171901Z 36006KT 13/02 A3016 RMK A01 T01330018  RH  045%=      5-min Rain = 0
KAM3 171902Z 33009KT 14/02 A3016 RMK A01 T01360019  RH  045%=      5-min Rain = 0
KAM3 171903Z 34008KT 14/02 A3016 RMK A01 T01380019  RH  044%=      5-min Rain = 0
KAM3 171904Z 34008KT 14/02 A3016 RMK A01 T01370019  RH  045%=      5-min Rain = 0
KAM3 171905Z 31007KT 14/02 A3016 RMK A01 T01370017  RH  044%=      5-min Rain = 0
KAM3 171906Z 32006KT 14/02 A3016 RMK A01 T01360019  RH  045%=      5-min Rain = 0
KAM3 171907Z 30006KT 14/02 A3016 RMK A01 T01370019  RH  045%=      5-min Rain = 0
KAM3 171908Z 30003KT 14/02 A3016 RMK A01 T01370018  RH  044%=      5-min Rain = 0
KAM3 171909Z 29003KT 14/02 A3016 RMK A01 T01370018  RH  044%=      5-min Rain = 0
KAM3 171910Z 00004KT 14/02 A3016 RMK A01 T01360019  RH  045%=      5-min Rain = 0
KAM3 171911Z 36008KT 14/02 A3016 RMK A01 T01380018  RH  044%=      5-min Rain = 0
KAM3 171912Z 01008KT 14/02 A3016 RMK A01 T01400017  RH  043%=      5-min Rain = 0
KAM3 171913Z 03005KT 14/02 A3016 RMK A01 T01380016  RH  043%=      5-min Rain = 0
KAM3 171914Z 04005KT 14/02 A3015 RMK A01 T01370016  RH  044%=      5-min Rain = 0
KAM3 171915Z 05004KT 14/02 A3015 RMK A01 T01380016  RH  044%=      5-min Rain = 0
KAM3 171916Z 06002KT 14/02 A3015 RMK A01 T01370015  RH  044%=      5-min Rain = 0
KAM3 171917Z 01005KT 13/01 A3015 RMK A01 T01340014  RH  044%=      5-min Rain = 0
KAM3 171918Z 34008KT 14/02 A3015 RMK A01 T01350016  RH  044%=      5-min Rain = 0
KAM3 171919Z 35010KT 14/01 A3015 RMK A01 T01360014  RH  043%=      5-min Rain = 0
KAM3 171920Z 35008KT 14/02 A3015 RMK A01 T01380015  RH  043%=      5-min Rain = 0
KAM3 171921Z 34006KT 14/01 A3015 RMK A01 T01390014  RH  043%=      5-min Rain = 0
KAM3 171922Z 01005KT 14/02 A3015 RMK A01 T01380015  RH  043%=      5-min Rain = 0
KAM3 171923Z 01004KT 14/01 A3015 RMK A01 T01400013  RH  042%=      5-min Rain = 0
KAM3 171924Z 34003KT 14/01 A3015 RMK A01 T01370012  RH  042%=      5-min Rain = 0
KAM3 171925Z 33005KT 14/01 A3014 RMK A01 T01380014  RH  043%=      5-min Rain = 0
KAM3 171926Z 33007KT 14/02 A3014 RMK A01 T01400016  RH  043%=      5-min Rain = 0
KAM3 171927Z 34008KT 14/02 A3014 RMK A01 T01420017  RH  043%=      5-min Rain = 0
KAM3 171928Z 01007KT 14/01 A3014 RMK A01 T01430014  RH  041%=      5-min Rain = 0
KAM3 171929Z 00008KT 14/01 A3014 RMK A01 T01420013  RH  041%=      5-min Rain = 0
KAM3 171930Z 02007KT 14/01 A3014 RMK A01 T01410013  RH  042%=      5-min Rain = 0
KAM3 171931Z 02006KT 14/01 A3014 RMK A01 T01410013  RH  042%=      5-min Rain = 0
KAM3 171932Z 01007KT 14/01 A3014 RMK A01 T01410013  RH  042%=      5-min Rain = 0
KAM3 171933Z 02008KT 14/01 A3013 RMK A01 T01420011  RH  041%=      5-min Rain = 0
KAM3 171934Z 02007KT 14/01 A3013 RMK A01 T01410008  RH  040%=      5-min Rain = 0
KAM3 171935Z 02008KT 14/01 A3013 RMK A01 T01410010  RH  041%=      5-min Rain = 0
KAM3 171936Z 02006KT 14/01 A3013 RMK A01 T01420010  RH  041%=      5-min Rain = 0
KAM3 171937Z 02004KT 14/01 A3013 RMK A01 T01410011  RH  041%=      5-min Rain = 0
KAM3 171938Z 00004KT 14/01 A3013 RMK A01 T01430011  RH  041%=      5-min Rain = 0
KAM3 171939Z 34005KT 14/01 A3013 RMK A01 T01440013  RH  041%=      5-min Rain = 0
KAM3 171940Z 33005KT 15/01 A3013 RMK A01 T01460014  RH  041%=      5-min Rain = 0
KAM3 171941Z 34008KT 15/01 A3013 RMK A01 T01460013  RH  041%=      5-min Rain = 0
KAM3 171942Z 34006KT 15/01 A3013 RMK A01 T01460014  RH  041%=      5-min Rain = 0
KAM3 171943Z 33004KT 15/01 A3013 RMK A01 T01460014  RH  041%=      5-min Rain = 0
KAM3 171944Z 32003KT 15/01 A3013 RMK A01 T01450013  RH  041%=      5-min Rain = 0
KAM3 171945Z 28004KT 14/02 A3012 RMK A01 T01440015  RH  041%=      5-min Rain = 0
KAM3 171946Z 27005KT 15/02 A3012 RMK A01 T01450015  RH  041%=      5-min Rain = 0
KAM3 171947Z 28005KT 15/02 A3012 RMK A01 T01470016  RH  041%=      5-min Rain = 0
KAM3 171948Z 33005KT 15/02 A3012 RMK A01 T01480016  RH  041%=      5-min Rain = 0
KAM3 171949Z 35006KT 15/01 A3012 RMK A01 T01490012  RH  039%=      5-min Rain = 0
KAM3 171950Z 01007KT 15/01 A3012 RMK A01 T01490011  RH  039%=      5-min Rain = 0
KAM3 171951Z 35007KT 15/01 A3012 RMK A01 T01490009  RH  038%=      5-min Rain = 0
KAM3 171952Z 00006KT 15/01 A3012 RMK A01 T01470009  RH  039%=      5-min Rain = 0
KAM3 171953Z 01005KT 15/01 A3012 RMK A01 T01460009  RH  039%=      5-min Rain = 0
KAM3 171954Z 35008KT 15/01 A3012 RMK A01 T01470011  RH  040%=      5-min Rain = 0
KAM3 171955Z 35008KT 15/01 A3012 RMK A01 T01470011  RH  039%=      5-min Rain = 0
KAM3 171956Z 33008KT 15/01 A3012 RMK A01 T01460012  RH  040%=      5-min Rain = 0
KAM3 171957Z 33008KT 15/01 A3012 RMK A01 T01460011  RH  040%=      5-min Rain = 0
KAM3 171958Z 32007KT 15/01 A3012 RMK A01 T01460011  RH  040%=      5-min Rain = 0
KAM3 171959Z 32004KT 15/01 A3012 RMK A01 T01450009  RH  040%=      5-min Rain = 0
KAM3 172000Z 32004KT 14/01 A3012 RMK A01 T01440010  RH  040%=      5-min Rain = 0
KAM3 172001Z 32004KT 15/01 A3012 RMK A01 T01450010  RH  040%=      5-min Rain = 0
KAM3 172002Z 32003KT 15/01 A3011 RMK A01 T01450009  RH  039%=      5-min Rain = 0
KAM3 172003Z 30002KT 14/01 A3011 RMK A01 T01440008  RH  039%=      5-min Rain = 0
KAM3 172004Z 26003KT 14/01 A3011 RMK A01 T01440008  RH  040%=      5-min Rain = 0
KAM3 172005Z 28004KT 14/01 A3011 RMK A01 T01440009  RH  040%=      5-min Rain = 0
KAM3 172006Z 34005KT 15/01 A3011 RMK A01 T01450010  RH  040%=      5-min Rain = 0
KAM3 172007Z 01006KT 15/01 A3011 RMK A01 T01490013  RH  040%=      5-min Rain = 0
KAM3 172008Z 00005KT 15/01 A3011 RMK A01 T01510011  RH  038%=      5-min Rain = 0
KAM3 172009Z 00008KT 15/01 A3011 RMK A01 T01500009  RH  038%=      5-min Rain = 0
KAM3 172010Z 01007KT 15/01 A3011 RMK A01 T01490009  RH  038%=      5-min Rain = 0
KAM3 172011Z 02006KT 15/01 A3011 RMK A01 T01500008  RH  038%=      5-min Rain = 0
KAM3 172012Z 04004KT 15/01 A301 RMK A01 T01490008  RH  038%=      5-min Rain = 0
KAM3 172013Z 35004KT 15/01 A301 RMK A01 T01470009  RH  039%=      5-min Rain = 0
KAM3 172014Z 35004KT 15/01 A301 RMK A01 T01480008  RH  039%=      5-min Rain = 0
KAM3 172015Z 00005KT 15/01 A301 RMK A01 T01490008  RH  038%=      5-min Rain = 0
KAM3 172016Z 35005KT 15/01 A301 RMK A01 T01500008  RH  038%=      5-min Rain = 0
KAM3 172017Z 33005KT 15/01 A301 RMK A01 T01510010  RH  038%=      5-min Rain = 0
KAM3 172018Z 34008KT 15/01 A301 RMK A01 T01510010  RH  038%=      5-min Rain = 0
KAM3 172019Z 35006KT 15/01 A301 RMK A01 T01490008  RH  038%=      5-min Rain = 0
KAM3 172020Z 01003KT 14/01 A301 RMK A01 T01440007  RH  039%=      5-min Rain = 0
KAM3 172021Z 32002KT 14/01 A301 RMK A01 T01430008  RH  040%=      5-min Rain = 0
KAM3 172022Z 31004KT 14/01 A301 RMK A01 T01430008  RH  040%=      5-min Rain = 0
KAM3 172023Z 35006KT 14/01 A301 RMK A01 T01440008  RH  039%=      5-min Rain = 0
KAM3 172024Z 34004KT 15/01 A301 RMK A01 T01460009  RH  039%=      5-min Rain = 0
KAM3 172025Z 03002KT 15/01 A301 RMK A01 T01460009  RH  039%=      5-min Rain = 0
KAM3 172026Z 32002KT 15/01 A301 RMK A01 T01470011  RH  039%=      5-min Rain = 0
KAM3 172027Z 31006KT 15/01 A301 RMK A01 T01490012  RH  039%=      5-min Rain = 0
KAM3 172028Z 32005KT 15/01 A301 RMK A01 T01500012  RH  039%=      5-min Rain = 0
KAM3 172029Z 31004KT 15/01 A301 RMK A01 T01500011  RH  039%=      5-min Rain = 0
KAM3 172030Z 30001KT 15/01 A301 RMK A01 T01490010  RH  039%=      5-min Rain = 0
KAM3 172031Z 32001KT 15/01 A301 RMK A01 T01490010  RH  039%=      5-min Rain = 0
KAM3 172032Z 35005KT 15/01 A301 RMK A01 T01490011  RH  039%=      5-min Rain = 0
KAM3 172033Z 01007KT 15/01 A301 RMK A01 T01500005  RH  037%=      5-min Rain = 0
KAM3 172034Z 35006KT 15/00 A301 RMK A01 T01490003  RH  037%=      5-min Rain = 0
KAM3 172035Z 33005KT 15/00 A301 RMK A01 T01490004  RH  037%=      5-min Rain = 0
KAM3 172036Z 35005KT 15/01 A301 RMK A01 T01500005  RH  037%=      5-min Rain = 0
KAM3 172037Z 33004KT 15/01 A301 RMK A01 T01520005  RH  037%=      5-min Rain = 0
KAM3 172038Z 35005KT 15/01 A301 RMK A01 T01530005  RH  036%=      5-min Rain = 0
KAM3 172039Z 00002KT 15/01 A301 RMK A01 T01530006  RH  037%=      5-min Rain = 0
KAM3 172040Z 34004KT 15/00 A301 RMK A01 T01530004  RH  036%=      5-min Rain = 0
KAM3 172041Z 31003KT 15/01 A3009 RMK A01 T01510008  RH  038%=      5-min Rain = 0
KAM3 172042Z 30007KT 15/01 A3009 RMK A01 T01510010  RH  038%=      5-min Rain = 0
KAM3 172043Z 32006KT 15/01 A3009 RMK A01 T01520010  RH  038%=      5-min Rain = 0
KAM3 172044Z 31005KT 15/01 A3009 RMK A01 T01540010  RH  038%=      5-min Rain = 0
KAM3 172045Z 30005KT 15/01 A3009 RMK A01 T01540011  RH  038%=      5-min Rain = 0
KAM3 172046Z 31005KT 15/01 A3009 RMK A01 T01520010  RH  038%=      5-min Rain = 0
KAM3 172047Z 32005KT 15/01 A3009 RMK A01 T01510011  RH  039%=      5-min Rain = 0
KAM3 172048Z 32005KT 15/01 A3009 RMK A01 T01510012  RH  039%=      5-min Rain = 0
KAM3 172049Z 33004KT 15/01 A3009 RMK A01 T01520011  RH  038%=      5-min Rain = 0
KAM3 172050Z 34005KT 15/01 A3009 RMK A01 T01510010  RH  038%=      5-min Rain = 0
KAM3 172051Z 35005KT 15/01 A3009 RMK A01 T01500010  RH  039%=      5-min Rain = 0
KAM3 172052Z 02004KT 15/01 A3009 RMK A01 T01510009  RH  038%=      5-min Rain = 0
KAM3 172053Z 02005KT 15/01 A3009 RMK A01 T01520006  RH  037%=      5-min Rain = 0
KAM3 172054Z 01005KT 15/01 A3009 RMK A01 T01520005  RH  037%=      5-min Rain = 0
KAM3 172055Z 36005KT 15/01 A3009 RMK A01 T01520005  RH  037%=      5-min Rain = 0
KAM3 172056Z 36005KT 15/01 A3009 RMK A01 T01520005  RH  037%=      5-min Rain = 0
KAM3 172057Z 01004KT 15/01 A3009 RMK A01 T01500005  RH  037%=      5-min Rain = 0
KAM3 172058Z 01003KT 15/01 A3009 RMK A01 T01490005  RH  038%=      5-min Rain = 0
KAM3 172059Z 34003KT 15/01 A3009 RMK A01 T01490006  RH  038%=      5-min Rain = 0
KAM3 172100Z 34005KT 15/01 A3009 RMK A01 T01490007  RH  038%=      5-min Rain = 0
KAM3 172101Z 01004KT 15/01 A3009 RMK A01 T01520006  RH  037%=      5-min Rain = 0
KAM3 172102Z 36003KT 15/00 A3009 RMK A01 T01510004  RH  037%=      5-min Rain = 0
KAM3 172103Z 35003KT 15/00 A3009 RMK A01 T01500004  RH  037%=      5-min Rain = 0
KAM3 172104Z 30002KT 15/01 A3009 RMK A01 T01510006  RH  037%=      5-min Rain = 0
KAM3 172105Z 30002KT 15/01 A3009 RMK A01 T01520007  RH  037%=      5-min Rain = 0
KAM3 172106Z 31002KT 15/01 A3009 RMK A01 T01530008  RH  037%=      5-min Rain = 0
KAM3 172107Z 32005KT 15/01 A3009 RMK A01 T01540007  RH  037%=      5-min Rain = 0
KAM3 172108Z 34004KT 16/01 A3009 RMK A01 T01560005  RH  036%=      5-min Rain = 0
KAM3 172109Z 34006KT 16/01 A3009 RMK A01 T01570006  RH  036%=      5-min Rain = 0
KAM3 172110Z 35005KT 16/01 A3009 RMK A01 T01570005  RH  035%=      5-min Rain = 0
KAM3 172111Z 36003KT 16/00 A3009 RMK A01 T01550002  RH  035%=      5-min Rain = 0
KAM3 172112Z 36005KT 15/00 A3009 RMK A01 T01530003  RH  036%=      5-min Rain = 0
KAM3 172113Z 01005KT 15/00 A3009 RMK A01 T01520002  RH  036%=      5-min Rain = 0
KAM3 172114Z 01004KT 15/00 A3009 RMK A01 T01500003  RH  036%=      5-min Rain = 0
KAM3 172115Z 02004KT 15/00 A3009 RMK A01 T01490003  RH  037%=      5-min Rain = 0
KAM3 172116Z 03004KT 15/00 A3009 RMK A01 T01510004  RH  037%=      5-min Rain = 0
KAM3 172117Z 04004KT 15/00 A3009 RMK A01 T01510004  RH  036%=      5-min Rain = 0
KAM3 172118Z 01006KT 15/00 A3009 RMK A01 T01520004  RH  036%=      5-min Rain = 0
KAM3 172119Z 03006KT 15/01 A3008 RMK A01 T01520005  RH  037%=      5-min Rain = 0
KAM3 172120Z 04005KT 15/00 A3008 RMK A01 T01520004  RH  036%=      5-min Rain = 0
KAM3 172121Z 03004KT 15/00 A3008 RMK A01 T01520003  RH  036%=      5-min Rain = 0
KAM3 172122Z 01004KT 15/00 A3008 RMK A01 T01510003  RH  037%=      5-min Rain = 0
KAM3 172123Z 02004KT 15/00 A3008 RMK A01 T01500002  RH  036%=      5-min Rain = 0
KAM3 172124Z 03004KT 15/00 A3008 RMK A01 T01500003  RH  037%=      5-min Rain = 0
KAM3 172125Z 35003KT 15/01 A3008 RMK A01 T01510005  RH  037%=      5-min Rain = 0
KAM3 172126Z 34004KT 15/01 A3008 RMK A01 T01530008  RH  037%=      5-min Rain = 0
KAM3 172127Z 35006KT 16/01 A3008 RMK A01 T01550008  RH  037%=      5-min Rain = 0
KAM3 172128Z 33007KT 16/01 A3008 RMK A01 T01550007  RH  036%=      5-min Rain = 0
KAM3 172129Z 32006KT 16/01 A3008 RMK A01 T01550006  RH  036%=      5-min Rain = 0
KAM3 172130Z 33005KT 15/01 A3008 RMK A01 T01540005  RH  036%=      5-min Rain = 0
KAM3 172131Z 35003KT 15/01 A3008 RMK A01 T01530005  RH  037%=      5-min Rain = 0
KAM3 172132Z 01001KT 15/01 A3008 RMK A01 T01530006  RH  037%=      5-min Rain = 0
KAM3 172133Z 06001KT 15/01 A3008 RMK A01 T01540005  RH  036%=      5-min Rain = 0
KAM3 172134Z 08001KT 15/00 A3008 RMK A01 T01530004  RH  036%=      5-min Rain = 0
KAM3 172135Z 36001KT 15/01 A3008 RMK A01 T01540005  RH  036%=      5-min Rain = 0
KAM3 172136Z 28002KT 16/01 A3008 RMK A01 T01550005  RH  036%=      5-min Rain = 0
KAM3 172137Z 29006KT 16/01 A3008 RMK A01 T01570006  RH  036%=      5-min Rain = 0
KAM3 172138Z 28005KT 16/01 A3008 RMK A01 T01570007  RH  036%=      5-min Rain = 0
KAM3 172139Z 29003KT 16/01 A3008 RMK A01 T01550006  RH  036%=      5-min Rain = 0
KAM3 172140Z 30002KT 15/01 A3008 RMK A01 T01540007  RH  037%=      5-min Rain = 0
KAM3 172141Z 30003KT 16/01 A3008 RMK A01 T01550008  RH  037%=      5-min Rain = 0
KAM3 172142Z 27003KT 16/01 A3008 RMK A01 T01550007  RH  036%=      5-min Rain = 0
KAM3 172143Z 25002KT 16/01 A3008 RMK A01 T01550006  RH  036%=      5-min Rain = 0
KAM3 172144Z 27005KT 16/01 A3008 RMK A01 T01550007  RH  036%=      5-min Rain = 0
KAM3 172145Z 27003KT 16/01 A3008 RMK A01 T01550007  RH  036%=      5-min Rain = 0
KAM3 172146Z 26003KT 16/01 A3008 RMK A01 T01550007  RH  037%=      5-min Rain = 0
KAM3 172147Z 29003KT 16/01 A3008 RMK A01 T01550007  RH  037%=      5-min Rain = 0
KAM3 172148Z 29002KT 16/01 A3008 RMK A01 T01560007  RH  036%=      5-min Rain = 0
KAM3 172149Z 29002KT 16/01 A3008 RMK A01 T01560007  RH  036%=      5-min Rain = 0
KAM3 172150Z 30001KT 16/01 A3008 RMK A01 T01560007  RH  036%=      5-min Rain = 0
KAM3 172151Z 27003KT 16/01 A3008 RMK A01 T01560007  RH  036%=      5-min Rain = 0
KAM3 172152Z 27004KT 16/01 A3008 RMK A01 T01570006  RH  036%=      5-min Rain = 0
KAM3 172153Z 27005KT 16/01 A3008 RMK A01 T01570005  RH  036%=      5-min Rain = 0
KAM3 172154Z 27006KT 16/00 A3008 RMK A01 T01560004  RH  036%=      5-min Rain = 0
KAM3 172155Z 26005KT 16/00 A3008 RMK A01 T01550004  RH  036%=      5-min Rain = 0
KAM3 172156Z 29005KT 16/00 A3008 RMK A01 T01550003  RH  035%=      5-min Rain = 0
KAM3 172157Z 28005KT 16/00 A3009 RMK A01 T01550004  RH  036%=      5-min Rain = 0
KAM3 172158Z 28005KT 15/00 A3009 RMK A01 T01540003  RH  036%=      5-min Rain = 0
KAM3 172159Z 28004KT 15/00 A3009 RMK A01 T01540003  RH  036%=      5-min Rain = 0
KAM3 172200Z 30004KT 15/00 A3009 RMK A01 T01540002  RH  035%=      5-min Rain = 0
KAM3 172201Z 30003KT 15/00 A3009 RMK A01 T01540001  RH  035%=      5-min Rain = 0
KAM3 172202Z 29005KT 15/00 A3009 RMK A01 T01540002  RH  035%=      5-min Rain = 0
KAM3 172203Z 29003KT 15/00 A3009 RMK A01 T01540001  RH  035%=      5-min Rain = 0
KAM3 172204Z 29004KT 15/00 A3009 RMK A01 T01540001  RH  035%=      5-min Rain = 0
KAM3 172205Z 28006KT 16/00 A3009 RMK A01 T01550002  RH  035%=      5-min Rain = 0
KAM3 172206Z 28004KT 15/00 A3009 RMK A01 T01540001  RH  035%=      5-min Rain = 0
KAM3 172207Z 25004KT 16/00 A3009 RMK A01 T01550002  RH  035%=      5-min Rain = 0
KAM3 172208Z 26005KT 16/00 A3009 RMK A01 T01550002  RH  035%=      5-min Rain = 0
KAM3 172209Z 26004KT 15/00 A3009 RMK A01 T01540001  RH  035%=      5-min Rain = 0
KAM3 172210Z 26005KT 15/00 A3009 RMK A01 T01540002  RH  036%=      5-min Rain = 0
KAM3 172211Z 28003KT 15/00 A3009 RMK A01 T01540001  RH  035%=      5-min Rain = 0
KAM3 172212Z 30004KT 15/00 A3009 RMK A01 T01540002  RH  036%=      5-min Rain = 0
KAM3 172213Z 32003KT 15/00 A3009 RMK A01 T01530001  RH  035%=      5-min Rain = 0
KAM3 172214Z 29003KT 15/00 A3009 RMK A01 T01530001  RH  035%=      5-min Rain = 0
KAM3 172215Z 31005KT 15/00 A3009 RMK A01 T01530001  RH  035%=      5-min Rain = 0
KAM3 172216Z 30005KT 15/00 A3009 RMK A01 T01530001  RH  035%=      5-min Rain = 0
KAM3 172217Z 30004KT 15/00 A3009 RMK A01 T01530001  RH  035%=      5-min Rain = 0
KAM3 172218Z 30004KT 15/00 A3009 RMK A01 T01530000  RH  035%=      5-min Rain = 0
KAM3 172219Z 29006KT 15/00 A3009 RMK A01 T015400-0  RH  035%=      5-min Rain = 0
KAM3 172220Z 31005KT 15/M00 A3009 RMK A01 T01541001  RH  035%=      5-min Rain = 0
KAM3 172221Z 31005KT 15/M00 A3009 RMK A01 T01531001  RH  035%=      5-min Rain = 0
KAM3 172222Z 29005KT 15/00 A3009 RMK A01 T015300-0  RH  035%=      5-min Rain = 0
KAM3 172223Z 27005KT 15/00 A3009 RMK A01 T01530000  RH  035%=      5-min Rain = 0
KAM3 172224Z 28004KT 15/M00 A3009 RMK A01 T01531001  RH  035%=      5-min Rain = 0
KAM3 172225Z 28004KT 15/M00 A3009 RMK A01 T01531002  RH  034%=      5-min Rain = 0
KAM3 172226Z 28004KT 15/M00 A3009 RMK A01 T01531004  RH  034%=      5-min Rain = 0
KAM3 172227Z 26002KT 15/M01 A3009 RMK A01 T01521005  RH  034%=      5-min Rain = 0
KAM3 172228Z 24002KT 15/M00 A3009 RMK A01 T01521004  RH  034%=      5-min Rain = 0
KAM3 172229Z 31002KT 15/M00 A3009 RMK A01 T01521003  RH  034%=      5-min Rain = 0
KAM3 172230Z 30002KT 15/M00 A3009 RMK A01 T01531003  RH  034%=      5-min Rain = 0
KAM3 172231Z 27002KT 15/M00 A3009 RMK A01 T01531004  RH  034%=      5-min Rain = 0
KAM3 172232Z 27002KT 15/M00 A3009 RMK A01 T01541004  RH  034%=      5-min Rain = 0
KAM3 172233Z 29003KT 15/M00 A3009 RMK A01 T01541004  RH  034%=      5-min Rain = 0
KAM3 172234Z 28003KT 15/M01 A3009 RMK A01 T01541005  RH  034%=      5-min Rain = 0
KAM3 172235Z 26002KT 15/M01 A3009 RMK A01 T01541006  RH  034%=      5-min Rain = 0
KAM3 172236Z 26002KT 15/M01 A3009 RMK A01 T01531006  RH  034%=      5-min Rain = 0
KAM3 172237Z 30002KT 15/M01 A3009 RMK A01 T01541005  RH  034%=      5-min Rain = 0
KAM3 172238Z 26002KT 15/M00 A3009 RMK A01 T01541004  RH  034%=      5-min Rain = 0
KAM3 172239Z 30002KT 15/M00 A3009 RMK A01 T01541004  RH  034%=      5-min Rain = 0
KAM3 172240Z 28002KT 15/M00 A3009 RMK A01 T01541004  RH  034%=      5-min Rain = 0
KAM3 172241Z 26003KT 15/M00 A3009 RMK A01 T01541004  RH  034%=      5-min Rain = 0
KAM3 172242Z 25003KT 15/M01 A3009 RMK A01 T01541005  RH  034%=      5-min Rain = 0
KAM3 172243Z 26001KT 15/M01 A3009 RMK A01 T01541005  RH  034%=      5-min Rain = 0
KAM3 172244Z 24001KT 15/M01 A3009 RMK A01 T01541005  RH  034%=      5-min Rain = 0
KAM3 172245Z 24001KT 16/M00 A3009 RMK A01 T01551004  RH  034%=      5-min Rain = 0
KAM3 172246Z 28001KT 16/M00 A3009 RMK A01 T01561004  RH  033%=      5-min Rain = 0
KAM3 172247Z 28001KT 16/M00 A3009 RMK A01 T01571004  RH  033%=      5-min Rain = 0
KAM3 172248Z 27002KT 16/M01 A3009 RMK A01 T01581005  RH  033%=      5-min Rain = 0
KAM3 172249Z 28002KT 16/M00 A3009 RMK A01 T01581004  RH  033%=      5-min Rain = 0
KAM3 172250Z 28003KT 16/M00 A3009 RMK A01 T01571004  RH  033%=      5-min Rain = 0
KAM3 172251Z 28002KT 16/M01 A3009 RMK A01 T01551005  RH  034%=      5-min Rain = 0
KAM3 172252Z 28001KT 15/M01 A3009 RMK A01 T01531005  RH  034%=      5-min Rain = 0
KAM3 172253Z 28003KT 15/M00 A3009 RMK A01 T01541004  RH  034%=      5-min Rain = 0
KAM3 172254Z 29002KT 15/M00 A3009 RMK A01 T01531004  RH  034%=      5-min Rain = 0
KAM3 172255Z 29003KT 15/M00 A3009 RMK A01 T01521004  RH  034%=      5-min Rain = 0
KAM3 172256Z 30002KT 15/M00 A3009 RMK A01 T01511004  RH  034%=      5-min Rain = 0
KAM3 172257Z 29002KT 15/M00 A3009 RMK A01 T01511004  RH  035%=      5-min Rain = 0
KAM3 172258Z 28002KT 15/M00 A3009 RMK A01 T01511004  RH  035%=      5-min Rain = 0
KAM3 172259Z 27004KT 15/M00 A3009 RMK A01 T01511004  RH  035%=      5-min Rain = 0
KAM3 172300Z 27004KT 15/M00 A3009 RMK A01 T01501003  RH  035%=      5-min Rain = 0
KAM3 172301Z 27003KT 15/M00 A3009 RMK A01 T01501003  RH  035%=      5-min Rain = 0
KAM3 172302Z 28002KT 15/M00 A3009 RMK A01 T01491003  RH  035%=      5-min Rain = 0
KAM3 172303Z 29002KT 15/M00 A3009 RMK A01 T01491003  RH  035%=      5-min Rain = 0
KAM3 172304Z 28003KT 15/M00 A3009 RMK A01 T01491003  RH  035%=      5-min Rain = 0
KAM3 172305Z 27004KT 15/M00 A3009 RMK A01 T01491002  RH  036%=      5-min Rain = 0
KAM3 172306Z 26003KT 15/M00 A3009 RMK A01 T01481002  RH  036%=      5-min Rain = 0
KAM3 172307Z 26003KT 15/M00 A3009 RMK A01 T01471001  RH  036%=      5-min Rain = 0
KAM3 172308Z 26003KT 15/M00 A3009 RMK A01 T01471001  RH  036%=      5-min Rain = 0
KAM3 172309Z 27003KT 15/M00 A3009 RMK A01 T01471001  RH  036%=      5-min Rain = 0
KAM3 172310Z 26002KT 15/M00 A3009 RMK A01 T01471001  RH  036%=      5-min Rain = 0
KAM3 172311Z 26002KT 15/M00 A3009 RMK A01 T01471001  RH  036%=      5-min Rain = 0
KAM3 172312Z 26002KT 15/M00 A3008 RMK A01 T01471001  RH  036%=      5-min Rain = 0
KAM3 172313Z 26001KT 15/M00 A3008 RMK A01 T01471001  RH  036%=      5-min Rain = 0
KAM3 172314Z 25001KT 15/M00 A3008 RMK A01 T01471001  RH  036%=      5-min Rain = 0
KAM3 172315Z 25001KT 15/M00 A3008 RMK A01 T01471001  RH  036%=      5-min Rain = 0
KAM3 172316Z 25002KT 15/M00 A3008 RMK A01 T01481001  RH  036%=      5-min Rain = 0
KAM3 172317Z 25002KT 15/00 A3008 RMK A01 T014800-0  RH  036%=      5-min Rain = 0
KAM3 172318Z 24002KT 15/00 A3008 RMK A01 T01480000  RH  036%=      5-min Rain = 0
KAM3 172319Z 24002KT 15/00 A3008 RMK A01 T014700-0  RH  037%=      5-min Rain = 0
KAM3 172320Z 24002KT 15/00 A3008 RMK A01 T014600-0  RH  037%=      5-min Rain = 0
KAM3 172321Z 23002KT 15/00 A3008 RMK A01 T014500-0  RH  037%=      5-min Rain = 0
KAM3 172322Z 23003KT 15/00 A3008 RMK A01 T014500-0  RH  037%=      5-min Rain = 0
KAM3 172323Z 23003KT 14/M00 A3008 RMK A01 T01441001  RH  037%=      5-min Rain = 0
KAM3 172324Z 23003KT 14/M00 A3008 RMK A01 T01431001  RH  037%=      5-min Rain = 0
KAM3 172325Z 23003KT 14/M00 A3008 RMK A01 T01421001  RH  037%=      5-min Rain = 0
KAM3 172326Z 23003KT 14/M00 A3008 RMK A01 T01411001  RH  038%=      5-min Rain = 0
KAM3 172327Z 23003KT 14/M00 A3008 RMK A01 T01411001  RH  038%=      5-min Rain = 0
KAM3 172328Z 22003KT 14/M00 A3008 RMK A01 T01401001  RH  038%=      5-min Rain = 0
KAM3 172329Z 23003KT 14/M00 A3008 RMK A01 T01391002  RH  038%=      5-min Rain = 0
KAM3 172330Z 23003KT 14/M00 A3008 RMK A01 T01381002  RH  038%=      5-min Rain = 0
KAM3 172331Z 22003KT 14/M00 A3008 RMK A01 T01371002  RH  038%=      5-min Rain = 0
KAM3 172332Z 22003KT 14/M00 A3008 RMK A01 T01361002  RH  039%=      5-min Rain = 0
KAM3 172333Z 22003KT 14/M00 A3008 RMK A01 T01351001  RH  039%=      5-min Rain = 0
KAM3 172334Z 22003KT 13/M00 A3008 RMK A01 T01341002  RH  039%=      5-min Rain = 0
KAM3 172335Z 22004KT 13/M00 A3008 RMK A01 T01321002  RH  040%=      5-min Rain = 0
KAM3 172336Z 21004KT 13/M00 A3008 RMK A01 T01311002  RH  040%=      5-min Rain = 0
KAM3 172337Z 21003KT 13/M00 A3008 RMK A01 T01291002  RH  040%=      5-min Rain = 0
KAM3 172338Z 22003KT 13/M00 A3008 RMK A01 T01281002  RH  041%=      5-min Rain = 0
KAM3 172339Z 21003KT 13/M00 A3008 RMK A01 T01271002  RH  041%=      5-min Rain = 0
KAM3 172340Z 21003KT 13/M00 A3008 RMK A01 T01251002  RH  041%=      5-min Rain = 0
KAM3 172341Z 21003KT 12/M00 A3008 RMK A01 T01241002  RH  042%=      5-min Rain = 0
KAM3 172342Z 21003KT 12/M00 A3008 RMK A01 T01231002  RH  042%=      5-min Rain = 0
KAM3 172343Z 21003KT 12/M00 A3008 RMK A01 T01221002  RH  042%=      5-min Rain = 0
KAM3 172344Z 21003KT 12/M00 A3008 RMK A01 T01211002  RH  043%=      5-min Rain = 0
KAM3 172345Z 22004KT 12/M00 A3009 RMK A01 T01201003  RH  043%=      5-min Rain = 0
KAM3 172346Z 21004KT 12/M00 A3009 RMK A01 T01191003  RH  043%=      5-min Rain = 0
KAM3 172347Z 21004KT 12/M00 A3009 RMK A01 T01181003  RH  043%=      5-min Rain = 0
KAM3 172348Z 21004KT 12/M00 A3009 RMK A01 T01181002  RH  043%=      5-min Rain = 0
KAM3 172349Z 21004KT 12/M00 A3008 RMK A01 T01171003  RH  044%=      5-min Rain = 0
KAM3 172350Z 21004KT 12/M00 A3008 RMK A01 T01161003  RH  044%=      5-min Rain = 0
KAM3 172351Z 21004KT 11/M00 A3008 RMK A01 T01141003  RH  044%=      5-min Rain = 0
KAM3 172352Z 21005KT 11/M00 A3008 RMK A01 T01131003  RH  045%=      5-min Rain = 0
KAM3 172353Z 21005KT 11/M00 A3009 RMK A01 T01121003  RH  045%=      5-min Rain = 0
KAM3 172354Z 21005KT 11/M00 A3009 RMK A01 T01101003  RH  045%=      5-min Rain = 0
KAM3 172355Z 21005KT 11/M00 A3009 RMK A01 T01091003  RH  046%=      5-min Rain = 0
KAM3 172356Z 22005KT 11/M00 A3009 RMK A01 T01091003  RH  046%=      5-min Rain = 0
KAM3 172357Z 22004KT 11/M00 A3009 RMK A01 T01091003  RH  046%=      5-min Rain = 0
KAM3 172358Z 23004KT 11/M00 A3009 RMK A01 T01081003  RH  046%=      5-min Rain = 0
KAM3 172359Z 23004KT 11/M00 A3009 RMK A01 T01081003  RH  046%=      5-min Rain = 0
KAM3 180000Z 23004KT 11/M00 A3009 RMK A01 T01081003  RH  046%=      5-min Rain = 0
KAM3 180001Z 23003KT 11/M00 A3009 RMK A01 T01081003  RH  046%=      5-min Rain = 0
KAM3 180002Z 23003KT 11/M00 A3009 RMK A01 T01081003  RH  046%=      5-min Rain = 0
KAM3 180003Z 22004KT 11/M00 A3009 RMK A01 T01081003  RH  046%=      5-min Rain = 0
KAM3 180004Z 22004KT 11/M00 A3009 RMK A01 T01081003  RH  046%=      5-min Rain = 0
KAM3 180005Z 22004KT 11/M00 A3009 RMK A01 T01081003  RH  046%=      5-min Rain = 0
KAM3 180006Z 22004KT 11/M00 A3009 RMK A01 T01081003  RH  046%=      5-min Rain = 0
KAM3 180007Z 22004KT 11/M00 A3009 RMK A01 T01081003  RH  046%=      5-min Rain = 0
KAM3 180008Z 22003KT 11/M00 A3009 RMK A01 T01081003  RH  046%=      5-min Rain = 0
KAM3 180009Z 22003KT 11/M00 A3009 RMK A01 T01081003  RH  046%=      5-min Rain = 0
KAM3 180010Z 22003KT 11/M00 A3009 RMK A01 T01081003  RH  046%=      5-min Rain = 0
KAM3 180011Z 22003KT 11/M00 A3009 RMK A01 T01081003  RH  046%=      5-min Rain = 0
KAM3 180012Z 20004KT 11/M00 A3009 RMK A01 T01081003  RH  046%=      5-min Rain = 0
KAM3 180013Z 20004KT 11/M00 A3009 RMK A01 T01081003  RH  046%=      5-min Rain = 0
KAM3 180014Z 20004KT 11/M00 A3009 RMK A01 T01071003  RH  046%=      5-min Rain = 0
KAM3 180015Z 21005KT 11/M00 A3009 RMK A01 T01061004  RH  046%=      5-min Rain = 0
KAM3 180016Z 21005KT 11/M00 A3009 RMK A01 T01051004  RH  047%=      5-min Rain = 0
KAM3 180017Z 21005KT 10/M00 A3009 RMK A01 T01041004  RH  047%=      5-min Rain = 0
KAM3 180018Z 21005KT 10/M00 A3009 RMK A01 T01041004  RH  047%=      5-min Rain = 0
KAM3 180019Z 21005KT 10/M01 A3009 RMK A01 T01031005  RH  047%=      5-min Rain = 0
KAM3 180020Z 21005KT 10/M01 A3008 RMK A01 T01031005  RH  047%=      5-min Rain = 0
KAM3 180021Z 21005KT 10/M01 A3008 RMK A01 T01021005  RH  047%=      5-min Rain = 0
KAM3 180022Z 21005KT 10/M01 A3008 RMK A01 T01021005  RH  047%=      5-min Rain = 0
KAM3 180023Z 21005KT 10/M01 A3008 RMK A01 T01021005  RH  047%=      5-min Rain = 0
KAM3 180024Z 21005KT 10/M01 A3008 RMK A01 T01011005  RH  047%=      5-min Rain = 0
KAM3 180025Z 21005KT 10/M01 A3008 RMK A01 T01011006  RH  048%=      5-min Rain = 0
KAM3 180026Z 21005KT 10/M01 A3008 RMK A01 T01001006  RH  048%=      5-min Rain = 0
KAM3 180027Z 21005KT 10/M01 A3008 RMK A01 T00991006  RH  048%=      5-min Rain = 0
KAM3 180028Z 21005KT 10/M01 A3008 RMK A01 T00991006  RH  048%=      5-min Rain = 0
KAM3 180029Z 21005KT 10/M01 A3008 RMK A01 T00991005  RH  048%=      5-min Rain = 0
KAM3 180030Z 21005KT 10/M01 A3009 RMK A01 T01001006  RH  048%=      5-min Rain = 0
KAM3 180031Z 21005KT 10/M01 A3009 RMK A01 T01001005  RH  048%=      5-min Rain = 0
KAM3 180032Z 21005KT 10/M01 A3009 RMK A01 T01011005  RH  048%=      5-min Rain = 0
KAM3 180033Z 21005KT 10/M01 A3009 RMK A01 T01011005  RH  048%=      5-min Rain = 0
KAM3 180034Z 21005KT 10/M01 A3009 RMK A01 T01011005  RH  047%=      5-min Rain = 0
KAM3 180035Z 21006KT 10/M01 A3009 RMK A01 T01011006  RH  047%=      5-min Rain = 0
KAM3 180036Z 21005KT 10/M01 A3009 RMK A01 T01011006  RH  047%=      5-min Rain = 0
KAM3 180037Z 21005KT 10/M01 A3009 RMK A01 T01011006  RH  048%=      5-min Rain = 0
KAM3 180038Z 21006KT 10/M01 A3009 RMK A01 T01001006  RH  048%=      5-min Rain = 0
KAM3 180039Z 21006KT 10/M01 A3009 RMK A01 T01001006  RH  048%=      5-min Rain = 0
KAM3 180040Z 21006KT 10/M01 A3009 RMK A01 T01001006  RH  048%=      5-min Rain = 0
KAM3 180041Z 21006KT 10/M01 A3009 RMK A01 T01001006  RH  048%=      5-min Rain = 0
KAM3 180042Z 21006KT 10/M01 A3009 RMK A01 T00991006  RH  048%=      5-min Rain = 0
KAM3 180043Z 21006KT 10/M01 A3009 RMK A01 T00991006  RH  048%=      5-min Rain = 0
KAM3 180044Z 21006KT 10/M01 A3009 RMK A01 T00981006  RH  048%=      5-min Rain = 0
KAM3 180045Z 21006KT 10/M01 A3009 RMK A01 T00981006  RH  048%=      5-min Rain = 0
KAM3 180046Z 21006KT 10/M01 A3009 RMK A01 T00981006  RH  048%=      5-min Rain = 0
KAM3 180047Z 21006KT 10/M01 A3009 RMK A01 T00981006  RH  048%=      5-min Rain = 0
KAM3 180048Z 21006KT 10/M01 A3009 RMK A01 T00981006  RH  048%=      5-min Rain = 0
KAM3 180049Z 21006KT 10/M01 A3009 RMK A01 T00981006  RH  048%=      5-min Rain = 0
KAM3 180050Z 21006KT 10/M01 A3009 RMK A01 T00981006  RH  048%=      5-min Rain = 0
KAM3 180051Z 21006KT 10/M01 A3009 RMK A01 T00981006  RH  048%=      5-min Rain = 0
KAM3 180052Z 21006KT 10/M01 A3009 RMK A01 T00981006  RH  048%=      5-min Rain = 0
KAM3 180053Z 21005KT 10/M01 A3009 RMK A01 T00981006  RH  048%=      5-min Rain = 0
KAM3 180054Z 20005KT 10/M01 A3009 RMK A01 T00981006  RH  048%=      5-min Rain = 0
KAM3 180055Z 20005KT 10/M01 A3009 RMK A01 T00991006  RH  048%=      5-min Rain = 0
KAM3 180056Z 20005KT 10/M01 A3009 RMK A01 T00991006  RH  048%=      5-min Rain = 0
KAM3 180057Z 20005KT 10/M01 A3009 RMK A01 T00991006  RH  048%=      5-min Rain = 0
KAM3 180058Z 20005KT 10/M01 A3009 RMK A01 T01001005  RH  048%=      5-min Rain = 0
KAM3 180059Z 20005KT 10/M01 A3009 RMK A01 T01011005  RH  048%=      5-min Rain = 0
KAM3 180100Z 20005KT 10/M01 A3009 RMK A01 T01021005  RH  047%=      5-min Rain = 0
KAM3 180101Z 20005KT 10/M01 A3009 RMK A01 T01031005  RH  047%=      5-min Rain = 0
KAM3 180102Z 20005KT 10/M01 A3009 RMK A01 T01031005  RH  047%=      5-min Rain = 0
KAM3 180103Z 20005KT 10/M01 A3009 RMK A01 T01041005  RH  047%=      5-min Rain = 0
KAM3 180104Z 20005KT 10/M01 A3009 RMK A01 T01041005  RH  047%=      5-min Rain = 0
KAM3 180105Z 20005KT 10/M01 A3009 RMK A01 T01031005  RH  047%=      5-min Rain = 0
KAM3 180106Z 20005KT 10/M01 A3009 RMK A01 T01031005  RH  047%=      5-min Rain = 0
KAM3 180107Z 20005KT 10/M01 A3009 RMK A01 T01021005  RH  047%=      5-min Rain = 0
KAM3 180108Z 20005KT 10/M01 A3009 RMK A01 T01021005  RH  047%=      5-min Rain = 0
KAM3 180109Z 17005KT 10/M01 A3009 RMK A01 T01021005  RH  047%=      5-min Rain = 0
KAM3 180110Z 14005KT 10/M01 A3009 RMK A01 T01001006  RH  048%=      5-min Rain = 0
KAM3 180111Z 15004KT 09/M01 A3009 RMK A01 T00941007  RH  049%=      5-min Rain = 0
KAM3 180112Z 14005KT 09/M01 A3009 RMK A01 T00891007  RH  051%=      5-min Rain = 0
KAM3 180113Z 14005KT 09/M01 A3009 RMK A01 T00851007  RH  053%=      5-min Rain = 0
KAM3 180114Z 15005KT 08/M01 A3009 RMK A01 T00821006  RH  054%=      5-min Rain = 0
KAM3 180115Z 15005KT 08/M01 A3009 RMK A01 T00801006  RH  054%=      5-min Rain = 0
KAM3 180116Z 15006KT 08/M01 A3009 RMK A01 T00791006  RH  055%=      5-min Rain = 0
KAM3 180117Z 15006KT 08/M01 A3009 RMK A01 T00781006  RH  055%=      5-min Rain = 0
KAM3 180118Z 15005KT 08/M01 A3009 RMK A01 T00761007  RH  056%=      5-min Rain = 0
KAM3 180119Z 14005KT 08/M01 A3009 RMK A01 T00761007  RH  056%=      5-min Rain = 0
KAM3 180120Z 14005KT 08/M01 A3009 RMK A01 T00751007  RH  056%=      5-min Rain = 0
KAM3 180121Z 14005KT 07/M01 A301 RMK A01 T00731007  RH  057%=      5-min Rain = 0
KAM3 180122Z 15004KT 07/M01 A301 RMK A01 T00711007  RH  057%=      5-min Rain = 0
KAM3 180123Z 15004KT 07/M01 A301 RMK A01 T00711007  RH  058%=      5-min Rain = 0
KAM3 180124Z 15004KT 07/M01 A301 RMK A01 T00701007  RH  058%=      5-min Rain = 0
KAM3 180125Z 16004KT 07/M01 A301 RMK A01 T00711006  RH  058%=      5-min Rain = 0
KAM3 180126Z 17004KT 07/M01 A301 RMK A01 T00721006  RH  058%=      5-min Rain = 0
KAM3 180127Z 17004KT 07/M01 A301 RMK A01 T00741006  RH  057%=      5-min Rain = 0
KAM3 180128Z 17004KT 08/M01 A301 RMK A01 T00751006  RH  057%=      5-min Rain = 0
KAM3 180129Z 18005KT 08/M01 A301 RMK A01 T00771005  RH  056%=      5-min Rain = 0
KAM3 180130Z 18005KT 08/M00 A301 RMK A01 T00801004  RH  055%=      5-min Rain = 0
KAM3 180131Z 18005KT 08/M00 A301 RMK A01 T00831004  RH  054%=      5-min Rain = 0
KAM3 180132Z 18006KT 08/M01 A301 RMK A01 T00841005  RH  053%=      5-min Rain = 0
KAM3 180133Z 16005KT 09/M01 A301 RMK A01 T00851005  RH  053%=      5-min Rain = 0
KAM3 180134Z 15005KT 08/M01 A301 RMK A01 T00831006  RH  054%=      5-min Rain = 0
KAM3 180135Z 15005KT 08/M01 A301 RMK A01 T00801007  RH  054%=      5-min Rain = 0
KAM3 180136Z 16005KT 08/M01 A301 RMK A01 T00771007  RH  055%=      5-min Rain = 0
KAM3 180137Z 15005KT 08/M01 A301 RMK A01 T00751007  RH  056%=      5-min Rain = 0
KAM3 180138Z 15004KT 07/M01 A301 RMK A01 T00721008  RH  057%=      5-min Rain = 0
KAM3 180139Z 14005KT 07/M01 A301 RMK A01 T00701008  RH  058%=      5-min Rain = 0
KAM3 180140Z 14005KT 07/M01 A301 RMK A01 T00671008  RH  059%=      5-min Rain = 0
KAM3 180141Z 14005KT 07/M01 A3009 RMK A01 T00651008  RH  059%=      5-min Rain = 0
KAM3 180142Z 13005KT 06/M01 A3009 RMK A01 T00641008  RH  060%=      5-min Rain = 0
KAM3 180143Z 14005KT 06/M01 A3009 RMK A01 T00641007  RH  060%=      5-min Rain = 0
KAM3 180144Z 14006KT 07/M01 A3009 RMK A01 T00651007  RH  060%=      5-min Rain = 0
KAM3 180145Z 14006KT 07/M01 A3009 RMK A01 T00651007  RH  060%=      5-min Rain = 0
KAM3 180146Z 14006KT 07/M01 A301 RMK A01 T00651007  RH  060%=      5-min Rain = 0
KAM3 180147Z 14007KT 07/M01 A3009 RMK A01 T00651007  RH  060%=      5-min Rain = 0
KAM3 180148Z 14007KT 07/M01 A3009 RMK A01 T00661007  RH  060%=      5-min Rain = 0
KAM3 180149Z 14007KT 07/M01 A3009 RMK A01 T00661007  RH  060%=      5-min Rain = 0
KAM3 180150Z 15007KT 07/M01 A3009 RMK A01 T00661007  RH  060%=      5-min Rain = 0
KAM3 180151Z 15007KT 07/M01 A3009 RMK A01 T00661007  RH  060%=      5-min Rain = 0
KAM3 180152Z 15007KT 07/M01 A3009 RMK A01 T00661007  RH  060%=      5-min Rain = 0
KAM3 180153Z 15007KT 07/M01 A3009 RMK A01 T00661007  RH  060%=      5-min Rain = 0
KAM3 180154Z 15006KT 07/M01 A301 RMK A01 T00651007  RH  060%=      5-min Rain = 0
KAM3 180155Z 14006KT 07/M01 A301 RMK A01 T00651007  RH  060%=      5-min Rain = 0
KAM3 180156Z 14006KT 06/M01 A301 RMK A01 T00641007  RH  060%=      5-min Rain = 0
KAM3 180157Z 14006KT 06/M01 A301 RMK A01 T00631007  RH  061%=      5-min Rain = 0
KAM3 180158Z 13006KT 06/M01 A301 RMK A01 T00621007  RH  061%=      5-min Rain = 0
KAM3 180159Z 13006KT 06/M01 A301 RMK A01 T00611007  RH  061%=      5-min Rain = 0
KAM3 180200Z 13006KT 06/M01 A301 RMK A01 T00611007  RH  062%=      5-min Rain = 0
KAM3 180201Z 14006KT 06/M01 A301 RMK A01 T00601007  RH  062%=      5-min Rain = 0
KAM3 180202Z 14006KT 06/M01 A301 RMK A01 T00601007  RH  062%=      5-min Rain = 0
KAM3 180203Z 14006KT 06/M01 A301 RMK A01 T00591007  RH  062%=      5-min Rain = 0
KAM3 180204Z 14006KT 06/M01 A301 RMK A01 T00591007  RH  063%=      5-min Rain = 0
KAM3 180205Z 14006KT 06/M01 A301 RMK A01 T00591007  RH  063%=      5-min Rain = 0
KAM3 180206Z 14006KT 06/M01 A301 RMK A01 T00591007  RH  063%=      5-min Rain = 0
KAM3 180207Z 14006KT 06/M01 A301 RMK A01 T00591007  RH  063%=      5-min Rain = 0
KAM3 180208Z 14006KT 06/M01 A301 RMK A01 T00591007  RH  063%=      5-min Rain = 0
KAM3 180209Z 15007KT 06/M01 A301 RMK A01 T00591007  RH  063%=      5-min Rain = 0
KAM3 180210Z 15007KT 06/M01 A301 RMK A01 T00591007  RH  063%=      5-min Rain = 0
KAM3 180211Z 15007KT 06/M01 A301 RMK A01 T00581007  RH  063%=      5-min Rain = 0
KAM3 180212Z 15007KT 06/M01 A301 RMK A01 T00581007  RH  063%=      5-min Rain = 0
KAM3 180213Z 15008KT 06/M01 A301 RMK A01 T00581007  RH  063%=      5-min Rain = 0
KAM3 180214Z 15008KT 06/M01 A3009 RMK A01 T00571007  RH  063%=      5-min Rain = 0
KAM3 180215Z 15008KT 06/M01 A3009 RMK A01 T00571007  RH  063%=      5-min Rain = 0
KAM3 180216Z 15008KT 06/M01 A3009 RMK A01 T00571007  RH  063%=      5-min Rain = 0
KAM3 180217Z 15008KT 06/M01 A3009 RMK A01 T00581007  RH  063%=      5-min Rain = 0
KAM3 180218Z 15007KT 06/M01 A3009 RMK A01 T00581007  RH  063%=      5-min Rain = 0
KAM3 180219Z 15007KT 06/M01 A3009 RMK A01 T00591007  RH  063%=      5-min Rain = 0
KAM3 180220Z 15007KT 06/M01 A3009 RMK A01 T00581007  RH  063%=      5-min Rain = 0
KAM3 180221Z 15007KT 06/M01 A3009 RMK A01 T00581007  RH  063%=      5-min Rain = 0
KAM3 180222Z 15007KT 06/M01 A301 RMK A01 T00571007  RH  063%=      5-min Rain = 0
KAM3 180223Z 15007KT 06/M01 A301 RMK A01 T00571007  RH  064%=      5-min Rain = 0
KAM3 180224Z 15007KT 06/M01 A301 RMK A01 T00561007  RH  064%=      5-min Rain = 0
KAM3 180225Z 15007KT 06/M01 A301 RMK A01 T00551007  RH  064%=      5-min Rain = 0
KAM3 180226Z 15007KT 06/M01 A301 RMK A01 T00551007  RH  064%=      5-min Rain = 0
KAM3 180227Z 15007KT 05/M01 A301 RMK A01 T00541007  RH  064%=      5-min Rain = 0
KAM3 180228Z 15007KT 05/M01 A301 RMK A01 T00531008  RH  065%=      5-min Rain = 0
KAM3 180229Z 15007KT 05/M01 A301 RMK A01 T00521008  RH  065%=      5-min Rain = 0
KAM3 180230Z 15007KT 05/M01 A301 RMK A01 T00521008  RH  066%=      5-min Rain = 0
KAM3 180231Z 15007KT 05/M01 A301 RMK A01 T00521007  RH  066%=      5-min Rain = 0
KAM3 180232Z 14007KT 05/M01 A301 RMK A01 T00521007  RH  066%=      5-min Rain = 0
KAM3 180233Z 14007KT 05/M01 A301 RMK A01 T00521007  RH  066%=      5-min Rain = 0
KAM3 180234Z 14007KT 05/M01 A301 RMK A01 T00521007  RH  066%=      5-min Rain = 0
KAM3 180235Z 15007KT 05/M01 A301 RMK A01 T00521007  RH  066%=      5-min Rain = 0
KAM3 180236Z 15007KT 05/M01 A301 RMK A01 T00521007  RH  066%=      5-min Rain = 0
KAM3 180237Z 15006KT 05/M01 A301 RMK A01 T00531006  RH  066%=      5-min Rain = 0
KAM3 180238Z 15006KT 05/M01 A301 RMK A01 T00521007  RH  066%=      5-min Rain = 0
KAM3 180239Z 15006KT 05/M01 A301 RMK A01 T00521007  RH  066%=      5-min Rain = 0
KAM3 180240Z 14006KT 05/M01 A301 RMK A01 T00501008  RH  066%=      5-min Rain = 0
KAM3 180241Z 14007KT 05/M01 A301 RMK A01 T00491008  RH  067%=      5-min Rain = 0
KAM3 180242Z 14007KT 05/M01 A301 RMK A01 T00491007  RH  067%=      5-min Rain = 0
KAM3 180243Z 15008KT 05/M01 A301 RMK A01 T00481007  RH  067%=      5-min Rain = 0
KAM3 180244Z 15008KT 05/M01 A3009 RMK A01 T00481007  RH  067%=      5-min Rain = 0
KAM3 180245Z 15007KT 05/M01 A3009 RMK A01 T00481007  RH  067%=      5-min Rain = 0
KAM3 180246Z 15007KT 05/M01 A3009 RMK A01 T00481007  RH  067%=      5-min Rain = 0
KAM3 180247Z 15007KT 05/M01 A3009 RMK A01 T00481007  RH  067%=      5-min Rain = 0
KAM3 180248Z 15007KT 05/M01 A3009 RMK A01 T00481008  RH  067%=      5-min Rain = 0
KAM3 180249Z 14007KT 05/M01 A301 RMK A01 T00471008  RH  068%=      5-min Rain = 0
KAM3 180250Z 15007KT 05/M01 A301 RMK A01 T00471007  RH  068%=      5-min Rain = 0
KAM3 180251Z 15007KT 05/M01 A301 RMK A01 T00471007  RH  068%=      5-min Rain = 0
KAM3 180252Z 15007KT 05/M01 A301 RMK A01 T00471007  RH  068%=      5-min Rain = 0
KAM3 180253Z 15007KT 05/M01 A3009 RMK A01 T00471007  RH  068%=      5-min Rain = 0
KAM3 180254Z 15007KT 05/M01 A3009 RMK A01 T00471007  RH  068%=      5-min Rain = 0
KAM3 180255Z 15007KT 05/M01 A3009 RMK A01 T00471008  RH  068%=      5-min Rain = 0
KAM3 180256Z 15007KT 05/M01 A3009 RMK A01 T00471008  RH  068%=      5-min Rain = 0
KAM3 180257Z 15007KT 05/M01 A3009 RMK A01 T00451008  RH  068%=      5-min Rain = 0
KAM3 180258Z 15008KT 05/M01 A3009 RMK A01 T00451008  RH  068%=      5-min Rain = 0
KAM3 180259Z 15008KT 04/M01 A3009 RMK A01 T00441008  RH  069%=      5-min Rain = 0
KAM3 180300Z 15008KT 04/M01 A3009 RMK A01 T00441008  RH  069%=      5-min Rain = 0
KAM3 180301Z 15008KT 05/M01 A3009 RMK A01 T00451007  RH  069%=      5-min Rain = 0
KAM3 180302Z 15007KT 05/M01 A3009 RMK A01 T00451007  RH  069%=      5-min Rain = 0
KAM3 180303Z 15007KT 05/M01 A3009 RMK A01 T00461006  RH  069%=      5-min Rain = 0
KAM3 180304Z 15007KT 05/M01 A3009 RMK A01 T00471006  RH  069%=      5-min Rain = 0
KAM3 180305Z 16007KT 05/M01 A3009 RMK A01 T00471006  RH  068%=      5-min Rain = 0
KAM3 180306Z 16008KT 05/M01 A3009 RMK A01 T00491005  RH  068%=      5-min Rain = 0
KAM3 180307Z 16007KT 05/M01 A3009 RMK A01 T00501005  RH  068%=      5-min Rain = 0
KAM3 180308Z 16008KT 05/M01 A3009 RMK A01 T00501005  RH  067%=      5-min Rain = 0
KAM3 180309Z 16008KT 05/M01 A3009 RMK A01 T00511005  RH  067%=      5-min Rain = 0
KAM3 180310Z 16008KT 05/M01 A3009 RMK A01 T00521005  RH  067%=      5-min Rain = 0
KAM3 180311Z 16007KT 05/M01 A3009 RMK A01 T00521005  RH  067%=      5-min Rain = 0
KAM3 180312Z 16007KT 05/M01 A3009 RMK A01 T00521005  RH  066%=      5-min Rain = 0
KAM3 180313Z 15007KT 05/M01 A3009 RMK A01 T00501007  RH  067%=      5-min Rain = 0
KAM3 180314Z 16006KT 05/M01 A3009 RMK A01 T00471009  RH  067%=      5-min Rain = 0
KAM3 180315Z 16007KT 04/M01 A3009 RMK A01 T00441010  RH  068%=      5-min Rain = 0
KAM3 180316Z 16007KT 04/M01 A3009 RMK A01 T00421009  RH  069%=      5-min Rain = 0
KAM3 180317Z 16007KT 04/M01 A3009 RMK A01 T00411009  RH  070%=      5-min Rain = 0
KAM3 180318Z 16008KT 04/M01 A3009 RMK A01 T00401009  RH  070%=      5-min Rain = 0
KAM3 180319Z 17009KT 04/M01 A3009 RMK A01 T00401008  RH  071%=      5-min Rain = 0
KAM3 180320Z 17009KT 04/M01 A3009 RMK A01 T00421006  RH  071%=      5-min Rain = 0
KAM3 180321Z 17008KT 05/M01 A3009 RMK A01 T00451005  RH  070%=      5-min Rain = 0
KAM3 180322Z 17008KT 05/M01 A3009 RMK A01 T00471005  RH  069%=      5-min Rain = 0
KAM3 180323Z 17007KT 05/M01 A3009 RMK A01 T00481005  RH  068%=      5-min Rain = 0
KAM3 180324Z 17007KT 05/M01 A3009 RMK A01 T00481006  RH  068%=      5-min Rain = 0
KAM3 180325Z 17007KT 05/M01 A3009 RMK A01 T00481006  RH  068%=      5-min Rain = 0
KAM3 180326Z 17007KT 05/M01 A3009 RMK A01 T00471006  RH  068%=      5-min Rain = 0
KAM3 180327Z 18007KT 05/M01 A3009 RMK A01 T00471006  RH  068%=      5-min Rain = 0
KAM3 180328Z 18007KT 05/M01 A3009 RMK A01 T00481005  RH  068%=      5-min Rain = 0
KAM3 180329Z 18007KT 05/M01 A3009 RMK A01 T00481006  RH  068%=      5-min Rain = 0
KAM3 180330Z 18006KT 05/M01 A3009 RMK A01 T00481006  RH  068%=      5-min Rain = 0
KAM3 180331Z 17007KT 05/M01 A3009 RMK A01 T00481006  RH  068%=      5-min Rain = 0
KAM3 180332Z 16008KT 05/M01 A3009 RMK A01 T00481005  RH  068%=      5-min Rain = 0
KAM3 180333Z 16008KT 05/M01 A3009 RMK A01 T00481005  RH  069%=      5-min Rain = 0
KAM3 180334Z 17008KT 05/M01 A3009 RMK A01 T00481005  RH  069%=      5-min Rain = 0
KAM3 180335Z 17007KT 05/M01 A3009 RMK A01 T00481005  RH  069%=      5-min Rain = 0
KAM3 180336Z 18006KT 05/M01 A3009 RMK A01 T00471005  RH  069%=      5-min Rain = 0
KAM3 180337Z 19004KT 05/M01 A3009 RMK A01 T00461005  RH  069%=      5-min Rain = 0
KAM3 180338Z 19006KT 05/M01 A3009 RMK A01 T00461005  RH  070%=      5-min Rain = 0
KAM3 180339Z 20005KT 05/M01 A3009 RMK A01 T00461005  RH  069%=      5-min Rain = 0
KAM3 180340Z 19006KT 05/M01 A3009 RMK A01 T00451006  RH  069%=      5-min Rain = 0
KAM3 180341Z 18006KT 04/M01 A3009 RMK A01 T00441006  RH  070%=      5-min Rain = 0
KAM3 180342Z 17006KT 04/M01 A3009 RMK A01 T00431006  RH  070%=      5-min Rain = 0
KAM3 180343Z 17005KT 04/M01 A3008 RMK A01 T00441005  RH  070%=      5-min Rain = 0
KAM3 180344Z 15003KT 04/M01 A3008 RMK A01 T00441005  RH  070%=      5-min Rain = 0
KAM3 180345Z 14004KT 04/M01 A3008 RMK A01 T00441006  RH  070%=      5-min Rain = 0
KAM3 180346Z 14005KT 04/M01 A3008 RMK A01 T00421007  RH  070%=      5-min Rain = 0
KAM3 180347Z 15006KT 04/M01 A3008 RMK A01 T00391010  RH  070%=      5-min Rain = 0
KAM3 180348Z 16007KT 04/M01 A3008 RMK A01 T00361010  RH  072%=      5-min Rain = 0
KAM3 180349Z 17007KT 04/M01 A3008 RMK A01 T00361009  RH  073%=      5-min Rain = 0
KAM3 180350Z 17007KT 04/M01 A3008 RMK A01 T00351009  RH  073%=      5-min Rain = 0
KAM3 180351Z 17007KT 04/M01 A3008 RMK A01 T00351008  RH  073%=      5-min Rain = 0
KAM3 180352Z 17007KT 04/M01 A3009 RMK A01 T00361008  RH  073%=      5-min Rain = 0
KAM3 180353Z 17007KT 04/M01 A3009 RMK A01 T00361008  RH  073%=      5-min Rain = 0
KAM3 180354Z 17007KT 04/M01 A3009 RMK A01 T00351009  RH  073%=      5-min Rain = 0
KAM3 180355Z 17007KT 04/M01 A3009 RMK A01 T00351008  RH  073%=      5-min Rain = 0
KAM3 180356Z 17007KT 04/M01 A3009 RMK A01 T00351008  RH  073%=      5-min Rain = 0
KAM3 180357Z 17007KT 04/M01 A3009 RMK A01 T00361008  RH  073%=      5-min Rain = 0
KAM3 180358Z 17007KT 04/M01 A3009 RMK A01 T00361008  RH  073%=      5-min Rain = 0
KAM3 180359Z 17007KT 04/M01 A3009 RMK A01 T00361008  RH  073%=      5-min Rain = 0
KAM3 180400Z 18007KT 04/M01 A3009 RMK A01 T00361008  RH  073%=      5-min Rain = 0
KAM3 180401Z 18007KT 04/M01 A3009 RMK A01 T00361007  RH  074%=      5-min Rain = 0
KAM3 180402Z 18006KT 04/M01 A3009 RMK A01 T00371007  RH  073%=      5-min Rain = 0
KAM3 180403Z 18007KT 04/M01 A3009 RMK A01 T00371007  RH  073%=      5-min Rain = 0
KAM3 180404Z 18006KT 04/M01 A3009 RMK A01 T00371007  RH  073%=      5-min Rain = 0
KAM3 180405Z 18006KT 04/M01 A3009 RMK A01 T00371007  RH  073%=      5-min Rain = 0
KAM3 180406Z 17005KT 04/M01 A3009 RMK A01 T00371007  RH  073%=      5-min Rain = 0
KAM3 180407Z 17005KT 04/M01 A3009 RMK A01 T00361009  RH  072%=      5-min Rain = 0
KAM3 180408Z 18006KT 03/M01 A3009 RMK A01 T00341010  RH  073%=      5-min Rain = 0
KAM3 180409Z 18006KT 03/M01 A3008 RMK A01 T00321010  RH  074%=      5-min Rain = 0
KAM3 180410Z 18006KT 03/M01 A3008 RMK A01 T00301010  RH  075%=      5-min Rain = 0
KAM3 180411Z 18007KT 03/M01 A3008 RMK A01 T00291010  RH  075%=      5-min Rain = 0
KAM3 180412Z 18007KT 03/M01 A3008 RMK A01 T00281010  RH  076%=      5-min Rain = 0
KAM3 180413Z 18008KT 03/M01 A3008 RMK A01 T00281010  RH  076%=      5-min Rain = 0
KAM3 180414Z 18009KT 03/M01 A3008 RMK A01 T00271010  RH  077%=      5-min Rain = 0
KAM3 180415Z 18010KT 03/M01 A3008 RMK A01 T00271008  RH  077%=      5-min Rain = 0
KAM3 180416Z 19010KT 03/M01 A3008 RMK A01 T00311005  RH  077%=      5-min Rain = 0
KAM3 180417Z 19010KT 04/M00 A3007 RMK A01 T00351003  RH  076%=      5-min Rain = 0
KAM3 180418Z 19010KT 04/M00 A3007 RMK A01 T00391002  RH  075%=      5-min Rain = 0
KAM3 180419Z 19010KT 04/00 A3007 RMK A01 T004300-0  RH  074%=      5-min Rain = 0
KAM3 180420Z 19010KT 05/00 A3007 RMK A01 T00460001  RH  073%=      5-min Rain = 0
KAM3 180421Z 18010KT 05/00 A3007 RMK A01 T00490002  RH  072%=      5-min Rain = 0
KAM3 180422Z 18009KT 05/00 A3007 RMK A01 T00520003  RH  071%=      5-min Rain = 0
KAM3 180423Z 18009KT 06/00 A3007 RMK A01 T00550004  RH  070%=      5-min Rain = 0
KAM3 180424Z 18009KT 06/00 A3007 RMK A01 T00570004  RH  069%=      5-min Rain = 0
KAM3 180425Z 18009KT 06/00 A3007 RMK A01 T00580004  RH  068%=      5-min Rain = 0
KAM3 180426Z 18008KT 06/00 A3007 RMK A01 T00590004  RH  068%=      5-min Rain = 0
KAM3 180427Z 18008KT 06/00 A3007 RMK A01 T00590004  RH  068%=      5-min Rain = 0
KAM3 180428Z 18009KT 06/00 A3007 RMK A01 T00580003  RH  068%=      5-min Rain = 0
KAM3 180429Z 18008KT 06/00 A3007 RMK A01 T00580003  RH  068%=      5-min Rain = 0
KAM3 180430Z 18008KT 06/00 A3007 RMK A01 T00570003  RH  068%=      5-min Rain = 0
KAM3 180431Z 18007KT 06/00 A3007 RMK A01 T00560002  RH  068%=      5-min Rain = 0
KAM3 180432Z 18008KT 06/00 A3007 RMK A01 T00550002  RH  069%=      5-min Rain = 0
KAM3 180433Z 19008KT 05/00 A3006 RMK A01 T00540003  RH  069%=      5-min Rain = 0
KAM3 180434Z 19009KT 05/00 A3006 RMK A01 T00540003  RH  070%=      5-min Rain = 0
KAM3 180435Z 19009KT 06/00 A3006 RMK A01 T00550004  RH  070%=      5-min Rain = 0
KAM3 180436Z 18010KT 06/01 A3006 RMK A01 T00560005  RH  070%=      5-min Rain = 0
KAM3 180437Z 18009KT 06/01 A3006 RMK A01 T00580006  RH  069%=      5-min Rain = 0
KAM3 180438Z 18010KT 06/01 A3006 RMK A01 T00600007  RH  069%=      5-min Rain = 0
KAM3 180439Z 18009KT 06/01 A3006 RMK A01 T00620008  RH  068%=      5-min Rain = 0
KAM3 180440Z 18009KT 06/01 A3006 RMK A01 T00640008  RH  067%=      5-min Rain = 0
KAM3 180441Z 18009KT 07/01 A3006 RMK A01 T00650008  RH  067%=      5-min Rain = 0
KAM3 180442Z 18010KT 07/01 A3006 RMK A01 T00650008  RH  067%=      5-min Rain = 0
KAM3 180443Z 18009KT 07/01 A3006 RMK A01 T00650008  RH  067%=      5-min Rain = 0
KAM3 180444Z 19009KT 07/01 A3006 RMK A01 T00650008  RH  067%=      5-min Rain = 0
KAM3 180445Z 19009KT 07/01 A3006 RMK A01 T00650008  RH  067%=      5-min Rain = 0
KAM3 180446Z 19009KT 07/01 A3006 RMK A01 T00650008  RH  067%=      5-min Rain = 0
KAM3 180447Z 19008KT 07/01 A3006 RMK A01 T00650008  RH  067%=      5-min Rain = 0
KAM3 180448Z 19008KT 07/01 A3006 RMK A01 T00650008  RH  067%=      5-min Rain = 0
KAM3 180449Z 19008KT 06/01 A3006 RMK A01 T00640008  RH  067%=      5-min Rain = 0
KAM3 180450Z 19007KT 06/01 A3005 RMK A01 T00640008  RH  067%=      5-min Rain = 0
KAM3 180451Z 18007KT 06/01 A3005 RMK A01 T00640008  RH  067%=      5-min Rain = 0
KAM3 180452Z 18008KT 06/01 A3005 RMK A01 T00630007  RH  067%=      5-min Rain = 0
KAM3 180453Z 18007KT 06/01 A3005 RMK A01 T00630007  RH  068%=      5-min Rain = 0
KAM3 180454Z 18008KT 06/01 A3005 RMK A01 T00620007  RH  068%=      5-min Rain = 0
KAM3 180455Z 18007KT 06/01 A3005 RMK A01 T00610007  RH  068%=      5-min Rain = 0
KAM3 180456Z 19008KT 06/01 A3005 RMK A01 T00610007  RH  069%=      5-min Rain = 0
KAM3 180457Z 19008KT 06/01 A3005 RMK A01 T00600007  RH  069%=      5-min Rain = 0
KAM3 180458Z 19008KT 06/01 A3005 RMK A01 T00600007  RH  069%=      5-min Rain = 0
KAM3 180459Z 19009KT 06/01 A3005 RMK A01 T00590007  RH  069%=      5-min Rain = 0
KAM3 180500Z 19009KT 06/01 A3005 RMK A01 T00590008  RH  069%=      5-min Rain = 0
KAM3 180501Z 19009KT 06/01 A3005 RMK A01 T00600008  RH  069%=      5-min Rain = 0
KAM3 180502Z 19009KT 06/01 A3005 RMK A01 T00600008  RH  069%=      5-min Rain = 0
KAM3 180503Z 18010KT 06/01 A3005 RMK A01 T00600008  RH  069%=      5-min Rain = 0
KAM3 180504Z 19010KT 06/01 A3005 RMK A01 T00600008  RH  069%=      5-min Rain = 0
KAM3 180505Z 19009KT 06/01 A3005 RMK A01 T00600008  RH  069%=      5-min Rain = 0
KAM3 180506Z 19009KT 06/01 A3005 RMK A01 T00610009  RH  069%=      5-min Rain = 0
KAM3 180507Z 19008KT 06/01 A3005 RMK A01 T00620009  RH  069%=      5-min Rain = 0
KAM3 180508Z 19008KT 06/01 A3005 RMK A01 T00620009  RH  069%=      5-min Rain = 0
KAM3 180509Z 20008KT 06/01 A3005 RMK A01 T00610009  RH  069%=      5-min Rain = 0
KAM3 180510Z 19008KT 06/01 A3005 RMK A01 T00600009  RH  069%=      5-min Rain = 0
KAM3 180511Z 19008KT 06/01 A3005 RMK A01 T00600008  RH  070%=      5-min Rain = 0
KAM3 180512Z 19009KT 06/01 A3005 RMK A01 T00590008  RH  070%=      5-min Rain = 0
KAM3 180513Z 19008KT 06/01 A3005 RMK A01 T00590009  RH  070%=      5-min Rain = 0
KAM3 180514Z 19008KT 06/01 A3005 RMK A01 T00610010  RH  070%=      5-min Rain = 0
KAM3 180515Z 19007KT 06/01 A3005 RMK A01 T00620010  RH  069%=      5-min Rain = 0
KAM3 180516Z 19008KT 06/01 A3005 RMK A01 T00630010  RH  069%=      5-min Rain = 0
KAM3 180517Z 19007KT 06/01 A3005 RMK A01 T00640011  RH  069%=      5-min Rain = 0
KAM3 180518Z 19007KT 06/01 A3005 RMK A01 T00640010  RH  069%=      5-min Rain = 0
KAM3 180519Z 19007KT 06/01 A3005 RMK A01 T00640010  RH  069%=      5-min Rain = 0
KAM3 180520Z 19007KT 06/01 A3005 RMK A01 T00640010  RH  069%=      5-min Rain = 0
KAM3 180521Z 19007KT 06/01 A3005 RMK A01 T00640010  RH  069%=      5-min Rain = 0
KAM3 180522Z 19007KT 06/01 A3005 RMK A01 T00640010  RH  069%=      5-min Rain = 0
KAM3 180523Z 19007KT 06/01 A3005 RMK A01 T00630009  RH  069%=      5-min Rain = 0
KAM3 180524Z 20007KT 06/01 A3005 RMK A01 T00610009  RH  069%=      5-min Rain = 0
KAM3 180525Z 20007KT 06/01 A3005 RMK A01 T00580007  RH  069%=      5-min Rain = 0
KAM3 180526Z 20007KT 05/01 A3005 RMK A01 T00540005  RH  071%=      5-min Rain = 0
KAM3 180527Z 20007KT 05/00 A3005 RMK A01 T00500004  RH  072%=      5-min Rain = 0
KAM3 180528Z 20007KT 05/00 A3005 RMK A01 T00470004  RH  074%=      5-min Rain = 0
KAM3 180529Z 20007KT 04/00 A3004 RMK A01 T00440004  RH  075%=      5-min Rain = 0
KAM3 180530Z 20007KT 04/00 A3004 RMK A01 T00430004  RH  076%=      5-min Rain = 0
KAM3 180531Z 20007KT 04/01 A3004 RMK A01 T00430006  RH  077%=      5-min Rain = 0
KAM3 180532Z 19007KT 05/01 A3004 RMK A01 T00450007  RH  076%=      5-min Rain = 0
KAM3 180533Z 20007KT 05/01 A3004 RMK A01 T00470008  RH  076%=      5-min Rain = 0
KAM3 180534Z 20007KT 05/01 A3004 RMK A01 T00490008  RH  075%=      5-min Rain = 0
KAM3 180535Z 20007KT 05/01 A3004 RMK A01 T00510009  RH  074%=      5-min Rain = 0
KAM3 180536Z 20008KT 05/01 A3004 RMK A01 T00510008  RH  074%=      5-min Rain = 0
KAM3 180537Z 20009KT 05/01 A3004 RMK A01 T00520008  RH  073%=      5-min Rain = 0
KAM3 180538Z 20009KT 05/01 A3004 RMK A01 T00520009  RH  073%=      5-min Rain = 0
KAM3 180539Z 20009KT 05/01 A3004 RMK A01 T00540009  RH  073%=      5-min Rain = 0
KAM3 180540Z 20009KT 05/01 A3004 RMK A01 T00540009  RH  072%=      5-min Rain = 0
KAM3 180541Z 20009KT 06/01 A3004 RMK A01 T00550009  RH  072%=      5-min Rain = 0
KAM3 180542Z 20008KT 05/01 A3004 RMK A01 T00540008  RH  072%=      5-min Rain = 0
KAM3 180543Z 20009KT 05/01 A3004 RMK A01 T00530007  RH  072%=      5-min Rain = 0
KAM3 180544Z 20008KT 05/01 A3004 RMK A01 T00530008  RH  072%=      5-min Rain = 0
KAM3 180545Z 20008KT 05/01 A3004 RMK A01 T00530008  RH  073%=      5-min Rain = 0
KAM3 180546Z 20009KT 05/01 A3004 RMK A01 T00530008  RH  073%=      5-min Rain = 0
KAM3 180547Z 20009KT 05/01 A3004 RMK A01 T00530008  RH  073%=      5-min Rain = 0
KAM3 180548Z 20009KT 05/01 A3004 RMK A01 T00530008  RH  073%=      5-min Rain = 0
KAM3 180549Z 20009KT 05/01 A3004 RMK A01 T00530008  RH  073%=      5-min Rain = 0
KAM3 180550Z 20009KT 05/01 A3004 RMK A01 T00530009  RH  073%=      5-min Rain = 0
KAM3 180551Z 20009KT 05/01 A3004 RMK A01 T00530009  RH  073%=      5-min Rain = 0
KAM3 180552Z 20009KT 05/01 A3004 RMK A01 T00530009  RH  073%=      5-min Rain = 0
KAM3 180553Z 20009KT 05/01 A3004 RMK A01 T00520008  RH  073%=      5-min Rain = 0
KAM3 180554Z 20009KT 05/01 A3004 RMK A01 T00510007  RH  074%=      5-min Rain = 0
KAM3 180555Z 20009KT 05/01 A3004 RMK A01 T00490007  RH  074%=      5-min Rain = 0
KAM3 180556Z 20009KT 05/01 A3004 RMK A01 T00490008  RH  075%=      5-min Rain = 0
KAM3 180557Z 20009KT 05/01 A3004 RMK A01 T00480008  RH  075%=      5-min Rain = 0
KAM3 180558Z 20009KT 05/01 A3004 RMK A01 T00470008  RH  076%=      5-min Rain = 0
KAM3 180559Z 20008KT 05/01 A3004 RMK A01 T00460008  RH  076%=      5-min Rain = 0

Page generated in 0.0846 seconds.